Observation data for Menard on 05/25/2019      Previous  Date  Next       Current Mesonet Observations  Soil Data  Daily Summary Page  Observations in Plain Language
KMD1 250500Z 14016KT 23/19 A2996 RMK A01 T02340189  RH  076%=      5-min Rain = 0
KMD1 250501Z 15014KT 23/19 A2996 RMK A01 T02340189  RH  076%=      5-min Rain = 0
KMD1 250502Z 15013KT 23/19 A2996 RMK A01 T02340190  RH  076%=      5-min Rain = 0
KMD1 250503Z 14015KT 23/19 A2996 RMK A01 T02340190  RH  076%=      5-min Rain = 0
KMD1 250504Z 14014KT 23/19 A2995 RMK A01 T02340190  RH  076%=      5-min Rain = 0
KMD1 250505Z 15015G20KT 23/19 A2995 RMK A01 T02340190  RH  076%=      5-min Rain = 0
KMD1 250506Z 15016KT 23/19 A2995 RMK A01 T02340190  RH  077%=      5-min Rain = 0
KMD1 250507Z 14012KT 23/19 A2995 RMK A01 T02340191  RH  077%=      5-min Rain = 0
KMD1 250508Z 15015G26KT 23/19 A2995 RMK A01 T02330191  RH  077%=      5-min Rain = 0
KMD1 250509Z 15019KT 23/19 A2995 RMK A01 T02330190  RH  077%=      5-min Rain = 0
KMD1 250510Z 14017KT 23/19 A2995 RMK A01 T02340190  RH  077%=      5-min Rain = 0
KMD1 250511Z 16015KT 23/19 A2995 RMK A01 T02340190  RH  076%=      5-min Rain = 0
KMD1 250512Z 16015KT 23/19 A2995 RMK A01 T02340190  RH  077%=      5-min Rain = 0
KMD1 250513Z 15013KT 23/19 A2995 RMK A01 T02340191  RH  077%=      5-min Rain = 0
KMD1 250514Z 15013KT 23/19 A2995 RMK A01 T02330191  RH  077%=      5-min Rain = 0
KMD1 250515Z 14014KT 23/19 A2995 RMK A01 T02330191  RH  077%=      5-min Rain = 0
KMD1 250516Z 15013KT 23/19 A2995 RMK A01 T02330191  RH  077%=      5-min Rain = 0
KMD1 250517Z 15013KT 23/19 A2995 RMK A01 T02330191  RH  077%=      5-min Rain = 0
KMD1 250518Z 15012KT 23/19 A2995 RMK A01 T02330191  RH  077%=      5-min Rain = 0
KMD1 250519Z 15010KT 23/19 A2995 RMK A01 T02320192  RH  078%=      5-min Rain = 0
KMD1 250520Z 15010KT 23/19 A2995 RMK A01 T02320192  RH  078%=      5-min Rain = 0
KMD1 250521Z 15010KT 23/19 A2995 RMK A01 T02310192  RH  078%=      5-min Rain = 0
KMD1 250522Z 15014KT 23/19 A2995 RMK A01 T02310192  RH  078%=      5-min Rain = 0
KMD1 250523Z 16011KT 23/19 A2995 RMK A01 T02310191  RH  078%=      5-min Rain = 0
KMD1 250524Z 15014KT 23/19 A2995 RMK A01 T02320192  RH  078%=      5-min Rain = 0
KMD1 250525Z 14012KT 23/19 A2995 RMK A01 T02320192  RH  078%=      5-min Rain = 0
KMD1 250526Z 14011KT 23/19 A2995 RMK A01 T02320192  RH  078%=      5-min Rain = 0
KMD1 250527Z 15011KT 23/19 A2995 RMK A01 T02320193  RH  079%=      5-min Rain = 0
KMD1 250528Z 14013KT 23/19 A2995 RMK A01 T02310192  RH  079%=      5-min Rain = 0
KMD1 250529Z 15013KT 23/19 A2995 RMK A01 T02310192  RH  079%=      5-min Rain = 0
KMD1 250530Z 15015KT 23/19 A2995 RMK A01 T02310192  RH  078%=      5-min Rain = 0
KMD1 250531Z 15014KT 23/19 A2995 RMK A01 T02320192  RH  078%=      5-min Rain = 0
KMD1 250532Z 14014KT 23/19 A2995 RMK A01 T02330193  RH  078%=      5-min Rain = 0
KMD1 250533Z 15012KT 23/19 A2995 RMK A01 T02330193  RH  078%=      5-min Rain = 0
KMD1 250534Z 15011G16KT 23/19 A2994 RMK A01 T02330193  RH  078%=      5-min Rain = 0
KMD1 250535Z 15015KT 23/19 A2994 RMK A01 T02330193  RH  078%=      5-min Rain = 0
KMD1 250536Z 14015KT 23/19 A2994 RMK A01 T02330193  RH  078%=      5-min Rain = 0
KMD1 250537Z 15012KT 23/19 A2994 RMK A01 T02330193  RH  078%=      5-min Rain = 0
KMD1 250538Z 14013G19KT 23/19 A2994 RMK A01 T02330193  RH  078%=      5-min Rain = 0
KMD1 250539Z 15016KT 23/19 A2994 RMK A01 T02330193  RH  078%=      5-min Rain = 0
KMD1 250540Z 15016KT 23/19 A2994 RMK A01 T02330193  RH  078%=      5-min Rain = 0
KMD1 250541Z 15011KT 23/19 A2995 RMK A01 T02330194  RH  078%=      5-min Rain = 0
KMD1 250542Z 15011KT 23/19 A2995 RMK A01 T02330194  RH  079%=      5-min Rain = 0
KMD1 250543Z 15014KT 23/19 A2995 RMK A01 T02330193  RH  078%=      5-min Rain = 0
KMD1 250544Z 15011KT 23/19 A2995 RMK A01 T02330193  RH  078%=      5-min Rain = 0
KMD1 250545Z 15012KT 23/19 A2995 RMK A01 T02330194  RH  078%=      5-min Rain = 0
KMD1 250546Z 14012KT 23/19 A2995 RMK A01 T02330194  RH  079%=      5-min Rain = 0
KMD1 250547Z 16011KT 23/19 A2995 RMK A01 T02330194  RH  079%=      5-min Rain = 0
KMD1 250548Z 15010KT 23/19 A2995 RMK A01 T02330194  RH  079%=      5-min Rain = 0
KMD1 250549Z 16011KT 23/19 A2995 RMK A01 T02330194  RH  079%=      5-min Rain = 0
KMD1 250550Z 16012KT 23/19 A2995 RMK A01 T02330194  RH  079%=      5-min Rain = 0
KMD1 250551Z 15010G15KT 23/19 A2995 RMK A01 T02330194  RH  079%=      5-min Rain = 0
KMD1 250552Z 15015KT 23/19 A2995 RMK A01 T02330194  RH  079%=      5-min Rain = 0
KMD1 250553Z 16017KT 23/19 A2995 RMK A01 T02340194  RH  078%=      5-min Rain = 0
KMD1 250554Z 16017KT 23/19 A2995 RMK A01 T02340194  RH  078%=      5-min Rain = 0
KMD1 250555Z 15015KT 24/19 A2995 RMK A01 T02350194  RH  078%=      5-min Rain = 0
KMD1 250556Z 16017KT 24/19 A2995 RMK A01 T02350194  RH  078%=      5-min Rain = 0
KMD1 250557Z 17013KT 24/19 A2995 RMK A01 T02360194  RH  077%=      5-min Rain = 0
KMD1 250558Z 16011KT 24/20 A2995 RMK A01 T02360195  RH  078%=      5-min Rain = 0
KMD1 250559Z 16011KT 24/20 A2995 RMK A01 T02360195  RH  078%=      5-min Rain = 0
KMD1 250600Z 16011G16KT 24/20 A2995 RMK A01 T02350195  RH  078%=      5-min Rain = 0
KMD1 250601Z 16014KT 24/20 A2995 RMK A01 T02350195  RH  078%=      5-min Rain = 0
KMD1 250602Z 16014KT 24/19 A2995 RMK A01 T02350194  RH  078%=      5-min Rain = 0
KMD1 250603Z 17013KT 24/20 A2995 RMK A01 T02350195  RH  078%=      5-min Rain = 0
KMD1 250604Z 15010KT 24/20 A2995 RMK A01 T02350195  RH  078%=      5-min Rain = 0
KMD1 250605Z 16008KT 24/20 A2995 RMK A01 T02350195  RH  078%=      5-min Rain = 0
KMD1 250606Z 16011KT 24/20 A2995 RMK A01 T02350196  RH  078%=      5-min Rain = 0
KMD1 250607Z 16009KT 24/20 A2995 RMK A01 T02350195  RH  078%=      5-min Rain = 0
KMD1 250608Z 16013G18KT 24/20 A2995 RMK A01 T02350195  RH  078%=      5-min Rain = 0
KMD1 250609Z 16015G21KT 24/20 A2995 RMK A01 T02350195  RH  078%=      5-min Rain = 0
KMD1 250610Z 15014G19KT 24/20 A2996 RMK A01 T02360195  RH  078%=      5-min Rain = 0
KMD1 250611Z 17010KT 24/20 A2996 RMK A01 T02360195  RH  078%=      5-min Rain = 0
KMD1 250612Z 15013KT 24/20 A2996 RMK A01 T02360196  RH  078%=      5-min Rain = 0
KMD1 250613Z 16013G19KT 24/20 A2996 RMK A01 T02370196  RH  078%=      5-min Rain = 0
KMD1 250614Z 17012G18KT 24/20 A2996 RMK A01 T02360196  RH  078%=      5-min Rain = 0
KMD1 250615Z 16009G14KT 24/20 A2996 RMK A01 T02370196  RH  078%=      5-min Rain = 0
KMD1 250616Z 16012G19KT 24/20 A2996 RMK A01 T02360196  RH  078%=      5-min Rain = 0
KMD1 250617Z 16017KT 24/20 A2996 RMK A01 T02360196  RH  078%=      5-min Rain = 0
KMD1 250618Z 16015G20KT 24/20 A2996 RMK A01 T02360196  RH  078%=      5-min Rain = 0
KMD1 250619Z 16015KT 24/20 A2996 RMK A01 T02360196  RH  078%=      5-min Rain = 0
KMD1 250620Z 16014KT 24/20 A2996 RMK A01 T02360195  RH  078%=      5-min Rain = 0
KMD1 250621Z 16012KT 24/20 A2996 RMK A01 T02370196  RH  078%=      5-min Rain = 0
KMD1 250622Z 17009KT 24/20 A2996 RMK A01 T02370196  RH  078%=      5-min Rain = 0
KMD1 250623Z 16011KT 24/20 A2996 RMK A01 T02360197  RH  078%=      5-min Rain = 0
KMD1 250624Z 17015KT 24/20 A2996 RMK A01 T02360196  RH  078%=      5-min Rain = 0
KMD1 250625Z 16013KT 24/20 A2996 RMK A01 T02360196  RH  078%=      5-min Rain = 0
KMD1 250626Z 17011KT 24/20 A2996 RMK A01 T02360196  RH  078%=      5-min Rain = 0
KMD1 250627Z 16010KT 24/20 A2996 RMK A01 T02370197  RH  078%=      5-min Rain = 0
KMD1 250628Z 16010KT 24/20 A2996 RMK A01 T02360197  RH  078%=      5-min Rain = 0
KMD1 250629Z 16010KT 24/20 A2996 RMK A01 T02360196  RH  078%=      5-min Rain = 0
KMD1 250630Z 16009KT 24/20 A2996 RMK A01 T02360196  RH  079%=      5-min Rain = 0
KMD1 250631Z 16012G17KT 24/20 A2996 RMK A01 T02360197  RH  078%=      5-min Rain = 0
KMD1 250632Z 16014KT 24/20 A2996 RMK A01 T02360196  RH  078%=      5-min Rain = 0
KMD1 250633Z 17011KT 24/20 A2996 RMK A01 T02360196  RH  078%=      5-min Rain = 0
KMD1 250634Z 17010KT 24/20 A2996 RMK A01 T02360196  RH  079%=      5-min Rain = 0
KMD1 250635Z 16008KT 24/20 A2996 RMK A01 T02360197  RH  079%=      5-min Rain = 0
KMD1 250636Z 17008KT 24/20 A2996 RMK A01 T02350197  RH  079%=      5-min Rain = 0
KMD1 250637Z 17011KT 24/20 A2996 RMK A01 T02350197  RH  079%=      5-min Rain = 0
KMD1 250638Z 16009KT 24/20 A2996 RMK A01 T02350197  RH  079%=      5-min Rain = 0
KMD1 250639Z 16009KT 24/20 A2996 RMK A01 T02350197  RH  079%=      5-min Rain = 0
KMD1 250640Z 16011KT 24/20 A2996 RMK A01 T02350197  RH  079%=      5-min Rain = 0
KMD1 250641Z 16012KT 24/20 A2996 RMK A01 T02350197  RH  079%=      5-min Rain = 0
KMD1 250642Z 16013KT 24/20 A2996 RMK A01 T02350196  RH  079%=      5-min Rain = 0
KMD1 250643Z 16011KT 24/20 A2996 RMK A01 T02350196  RH  079%=      5-min Rain = 0
KMD1 250644Z 15013KT 24/20 A2996 RMK A01 T02360197  RH  079%=      5-min Rain = 0
KMD1 250645Z 16012KT 24/20 A2996 RMK A01 T02360197  RH  079%=      5-min Rain = 0
KMD1 250646Z 16012KT 24/20 A2996 RMK A01 T02360197  RH  079%=      5-min Rain = 0
KMD1 250647Z 16010KT 24/20 A2996 RMK A01 T02360197  RH  079%=      5-min Rain = 0
KMD1 250648Z 17009KT 24/20 A2996 RMK A01 T02360197  RH  079%=      5-min Rain = 0
KMD1 250649Z 16010KT 24/20 A2996 RMK A01 T02360198  RH  079%=      5-min Rain = 0
KMD1 250650Z 17016G21KT 24/20 A2996 RMK A01 T02350197  RH  079%=      5-min Rain = 0
KMD1 250651Z 17015G20KT 24/20 A2996 RMK A01 T02350196  RH  079%=      5-min Rain = 0
KMD1 250652Z 15012G18KT 24/20 A2996 RMK A01 T02350197  RH  079%=      5-min Rain = 0
KMD1 250653Z 16013G18KT 24/20 A2996 RMK A01 T02350197  RH  079%=      5-min Rain = 0
KMD1 250654Z 16012KT 24/20 A2996 RMK A01 T02350197  RH  079%=      5-min Rain = 0
KMD1 250655Z 16014KT 24/20 A2996 RMK A01 T02350197  RH  079%=      5-min Rain = 0
KMD1 250656Z 16013KT 24/20 A2996 RMK A01 T02360197  RH  079%=      5-min Rain = 0
KMD1 250657Z 16011KT 24/20 A2996 RMK A01 T02360197  RH  079%=      5-min Rain = 0
KMD1 250658Z 15013KT 24/20 A2996 RMK A01 T02350197  RH  079%=      5-min Rain = 0
KMD1 250659Z 15012KT 24/20 A2996 RMK A01 T02350197  RH  079%=      5-min Rain = 0
KMD1 250700Z 16012KT 24/20 A2996 RMK A01 T02350197  RH  079%=      5-min Rain = 0
KMD1 250701Z 16013KT 24/20 A2996 RMK A01 T02350197  RH  079%=      5-min Rain = 0
KMD1 250702Z 16013KT 24/20 A2996 RMK A01 T02350197  RH  079%=      5-min Rain = 0
KMD1 250703Z 17011KT 24/20 A2996 RMK A01 T02360197  RH  079%=      5-min Rain = 0
KMD1 250704Z 15012KT 24/20 A2996 RMK A01 T02350197  RH  079%=      5-min Rain = 0
KMD1 250705Z 16013KT 24/20 A2996 RMK A01 T02360197  RH  079%=      5-min Rain = 0
KMD1 250706Z 17013KT 24/20 A2996 RMK A01 T02360198  RH  079%=      5-min Rain = 0
KMD1 250707Z 16012KT 24/20 A2996 RMK A01 T02350197  RH  079%=      5-min Rain = 0
KMD1 250708Z 15011KT 24/20 A2996 RMK A01 T02360198  RH  079%=      5-min Rain = 0
KMD1 250709Z 16012KT 24/20 A2996 RMK A01 T02360197  RH  079%=      5-min Rain = 0
KMD1 250710Z 15010KT 24/20 A2997 RMK A01 T02350197  RH  079%=      5-min Rain = 0
KMD1 250711Z 16009KT 24/20 A2997 RMK A01 T02350198  RH  079%=      5-min Rain = 0
KMD1 250712Z 16012KT 24/20 A2997 RMK A01 T02350198  RH  079%=      5-min Rain = 0
KMD1 250713Z 17012KT 24/20 A2997 RMK A01 T02350198  RH  080%=      5-min Rain = 0
KMD1 250714Z 17010KT 24/20 A2997 RMK A01 T02350198  RH  079%=      5-min Rain = 0
KMD1 250715Z 16013KT 24/20 A2997 RMK A01 T02350198  RH  080%=      5-min Rain = 0
KMD1 250716Z 16015KT 24/20 A2997 RMK A01 T02350198  RH  080%=      5-min Rain = 0
KMD1 250717Z 15010KT 24/20 A2997 RMK A01 T02350198  RH  079%=      5-min Rain = 0
KMD1 250718Z 15009KT 24/20 A2997 RMK A01 T02350198  RH  080%=      5-min Rain = 0
KMD1 250719Z 15008KT 24/20 A2997 RMK A01 T02350198  RH  080%=      5-min Rain = 0
KMD1 250720Z 16012KT 24/20 A2997 RMK A01 T02350198  RH  080%=      5-min Rain = 0
KMD1 250721Z 16011KT 24/20 A2997 RMK A01 T02350198  RH  080%=      5-min Rain = 0
KMD1 250722Z 16009KT 24/20 A2997 RMK A01 T02350198  RH  080%=      5-min Rain = 0
KMD1 250723Z 16009KT 23/20 A2997 RMK A01 T02340198  RH  080%=      5-min Rain = 0
KMD1 250724Z 16009KT 23/20 A2997 RMK A01 T02340198  RH  080%=      5-min Rain = 0
KMD1 250725Z 17010KT 23/20 A2997 RMK A01 T02340198  RH  080%=      5-min Rain = 0
KMD1 250726Z 16011KT 23/20 A2997 RMK A01 T02340198  RH  080%=      5-min Rain = 0
KMD1 250727Z 15012KT 23/20 A2997 RMK A01 T02340198  RH  080%=      5-min Rain = 0
KMD1 250728Z 16010KT 23/20 A2997 RMK A01 T02340198  RH  080%=      5-min Rain = 0
KMD1 250729Z 15008KT 23/20 A2997 RMK A01 T02340199  RH  081%=      5-min Rain = 0
KMD1 250730Z 15009KT 23/20 A2997 RMK A01 T02340198  RH  081%=      5-min Rain = 0
KMD1 250731Z 15010KT 23/20 A2997 RMK A01 T02340198  RH  080%=      5-min Rain = 0
KMD1 250732Z 16011KT 23/20 A2997 RMK A01 T02340198  RH  080%=      5-min Rain = 0
KMD1 250733Z 15009KT 23/20 A2997 RMK A01 T02340198  RH  080%=      5-min Rain = 0
KMD1 250734Z 16013KT 23/20 A2997 RMK A01 T02340198  RH  080%=      5-min Rain = 0
KMD1 250735Z 16011KT 23/20 A2997 RMK A01 T02340198  RH  080%=      5-min Rain = 0
KMD1 250736Z 15009KT 23/20 A2997 RMK A01 T02340198  RH  080%=      5-min Rain = 0
KMD1 250737Z 16007KT 23/20 A2997 RMK A01 T02340198  RH  080%=      5-min Rain = 0
KMD1 250738Z 16008KT 23/20 A2997 RMK A01 T02340198  RH  081%=      5-min Rain = 0
KMD1 250739Z 15008KT 23/20 A2997 RMK A01 T02330198  RH  081%=      5-min Rain = 0
KMD1 250740Z 17006KT 23/20 A2997 RMK A01 T02330198  RH  081%=      5-min Rain = 0
KMD1 250741Z 17010KT 23/20 A2997 RMK A01 T02330199  RH  081%=      5-min Rain = 0
KMD1 250742Z 17008KT 23/20 A2997 RMK A01 T02330198  RH  081%=      5-min Rain = 0
KMD1 250743Z 15006KT 23/20 A2997 RMK A01 T02330198  RH  081%=      5-min Rain = 0
KMD1 250744Z 16007KT 23/20 A2997 RMK A01 T02330198  RH  081%=      5-min Rain = 0
KMD1 250745Z 17005KT 23/20 A2997 RMK A01 T02330198  RH  081%=      5-min Rain = 0
KMD1 250746Z 16007KT 23/20 A2997 RMK A01 T02330198  RH  081%=      5-min Rain = 0
KMD1 250747Z 17009KT 23/20 A2997 RMK A01 T02330198  RH  081%=      5-min Rain = 0
KMD1 250748Z 16006KT 23/20 A2997 RMK A01 T02330198  RH  081%=      5-min Rain = 0
KMD1 250749Z 18008KT 23/20 A2997 RMK A01 T02330199  RH  081%=      5-min Rain = 0
KMD1 250750Z 16008KT 23/20 A2997 RMK A01 T02330199  RH  081%=      5-min Rain = 0
KMD1 250751Z 17011KT 23/20 A2997 RMK A01 T02330198  RH  081%=      5-min Rain = 0
KMD1 250752Z 16009KT 23/20 A2997 RMK A01 T02330198  RH  081%=      5-min Rain = 0
KMD1 250753Z 17008KT 23/20 A2997 RMK A01 T02330197  RH  080%=      5-min Rain = 0
KMD1 250754Z 16007KT 23/20 A2997 RMK A01 T02330198  RH  081%=      5-min Rain = 0
KMD1 250755Z 15010KT 23/20 A2997 RMK A01 T02330198  RH  081%=      5-min Rain = 0
KMD1 250756Z 15011KT 23/20 A2997 RMK A01 T02330198  RH  081%=      5-min Rain = 0
KMD1 250757Z 15010G15KT 23/20 A2997 RMK A01 T02330198  RH  081%=      5-min Rain = 0
KMD1 250758Z 15010KT 23/20 A2997 RMK A01 T02330198  RH  081%=      5-min Rain = 0
KMD1 250759Z 15010KT 23/20 A2997 RMK A01 T02330198  RH  081%=      5-min Rain = 0
KMD1 250800Z 15007KT 23/20 A2997 RMK A01 T02330198  RH  081%=      5-min Rain = 0
KMD1 250801Z 17008KT 23/20 A2997 RMK A01 T02330198  RH  081%=      5-min Rain = 0
KMD1 250802Z 16008KT 23/20 A2997 RMK A01 T02330199  RH  081%=      5-min Rain = 0
KMD1 250803Z 14008KT 23/20 A2997 RMK A01 T02330198  RH  081%=      5-min Rain = 0
KMD1 250804Z 15010KT 23/20 A2997 RMK A01 T02320198  RH  081%=      5-min Rain = 0
KMD1 250805Z 15010KT 23/20 A2997 RMK A01 T02320197  RH  081%=      5-min Rain = 0
KMD1 250806Z 14011KT 23/20 A2997 RMK A01 T02330198  RH  081%=      5-min Rain = 0
KMD1 250807Z 15010KT 23/20 A2997 RMK A01 T02330197  RH  080%=      5-min Rain = 0
KMD1 250808Z 13009KT 23/20 A2997 RMK A01 T02330198  RH  080%=      5-min Rain = 0
KMD1 250809Z 14009KT 23/20 A2997 RMK A01 T02330198  RH  081%=      5-min Rain = 0
KMD1 250810Z 15010KT 23/20 A2997 RMK A01 T02330198  RH  081%=      5-min Rain = 0
KMD1 250811Z 14010KT 23/20 A2997 RMK A01 T02330198  RH  081%=      5-min Rain = 0
KMD1 250812Z 15009KT 23/20 A2997 RMK A01 T02330197  RH  081%=      5-min Rain = 0
KMD1 250813Z 15012KT 23/20 A2997 RMK A01 T02330198  RH  081%=      5-min Rain = 0
KMD1 250814Z 15010KT 23/20 A2997 RMK A01 T02330197  RH  080%=      5-min Rain = 0
KMD1 250815Z 15010KT 23/20 A2997 RMK A01 T02330197  RH  081%=      5-min Rain = 0
KMD1 250816Z 15009KT 23/20 A2997 RMK A01 T02330198  RH  081%=      5-min Rain = 0
KMD1 250817Z 14010KT 23/20 A2997 RMK A01 T02330198  RH  081%=      5-min Rain = 0
KMD1 250818Z 15012KT 23/20 A2996 RMK A01 T02330197  RH  081%=      5-min Rain = 0
KMD1 250819Z 16011KT 23/20 A2996 RMK A01 T02330197  RH  080%=      5-min Rain = 0
KMD1 250820Z 13010KT 23/20 A2996 RMK A01 T02330198  RH  080%=      5-min Rain = 0
KMD1 250821Z 14009KT 23/20 A2996 RMK A01 T02330197  RH  080%=      5-min Rain = 0
KMD1 250822Z 14010KT 23/20 A2996 RMK A01 T02330198  RH  081%=      5-min Rain = 0
KMD1 250823Z 14009KT 23/20 A2996 RMK A01 T02320198  RH  081%=      5-min Rain = 0
KMD1 250824Z 13008KT 23/20 A2996 RMK A01 T02320198  RH  081%=      5-min Rain = 0
KMD1 250825Z 14010KT 23/20 A2996 RMK A01 T02320198  RH  081%=      5-min Rain = 0
KMD1 250826Z 15007KT 23/20 A2996 RMK A01 T02320198  RH  081%=      5-min Rain = 0
KMD1 250827Z 15011KT 23/20 A2996 RMK A01 T02320197  RH  081%=      5-min Rain = 0
KMD1 250828Z 15011KT 23/20 A2996 RMK A01 T02320198  RH  081%=      5-min Rain = 0
KMD1 250829Z 13009KT 23/20 A2996 RMK A01 T02320197  RH  081%=      5-min Rain = 0
KMD1 250830Z 14009KT 23/20 A2996 RMK A01 T02320197  RH  081%=      5-min Rain = 0
KMD1 250831Z 14008KT 23/20 A2996 RMK A01 T02320197  RH  081%=      5-min Rain = 0
KMD1 250832Z 14008KT 23/20 A2996 RMK A01 T02320198  RH  081%=      5-min Rain = 0
KMD1 250833Z 14007KT 23/20 A2996 RMK A01 T02310198  RH  082%=      5-min Rain = 0
KMD1 250834Z 14009KT 23/20 A2996 RMK A01 T02300198  RH  082%=      5-min Rain = 0
KMD1 250835Z 15013KT 23/20 A2996 RMK A01 T02300196  RH  081%=      5-min Rain = 0
KMD1 250836Z 13012KT 23/20 A2995 RMK A01 T02310196  RH  081%=      5-min Rain = 0
KMD1 250837Z 15013KT 23/20 A2995 RMK A01 T02310197  RH  081%=      5-min Rain = 0
KMD1 250838Z 14011KT 23/20 A2995 RMK A01 T02310196  RH  081%=      5-min Rain = 0
KMD1 250839Z 14012KT 23/20 A2995 RMK A01 T02320197  RH  080%=      5-min Rain = 0
KMD1 250840Z 14009KT 23/20 A2995 RMK A01 T02320196  RH  081%=      5-min Rain = 0
KMD1 250841Z 14010KT 23/20 A2995 RMK A01 T02320197  RH  081%=      5-min Rain = 0
KMD1 250842Z 14013KT 23/20 A2995 RMK A01 T02320197  RH  081%=      5-min Rain = 0
KMD1 250843Z 15009KT 23/20 A2995 RMK A01 T02320197  RH  081%=      5-min Rain = 0
KMD1 250844Z 14012KT 23/20 A2995 RMK A01 T02320197  RH  081%=      5-min Rain = 0
KMD1 250845Z 14012KT 23/20 A2995 RMK A01 T02320197  RH  081%=      5-min Rain = 0
KMD1 250846Z 14012KT 23/20 A2995 RMK A01 T02320197  RH  081%=      5-min Rain = 0
KMD1 250847Z 13012KT 23/20 A2995 RMK A01 T02310196  RH  081%=      5-min Rain = 0
KMD1 250848Z 13008KT 23/20 A2995 RMK A01 T02320197  RH  081%=      5-min Rain = 0
KMD1 250849Z 13011KT 23/20 A2995 RMK A01 T02310198  RH  082%=      5-min Rain = 0
KMD1 250850Z 14012KT 23/20 A2995 RMK A01 T02300197  RH  082%=      5-min Rain = 0
KMD1 250851Z 14012KT 23/20 A2994 RMK A01 T02300197  RH  081%=      5-min Rain = 0
KMD1 250852Z 15013KT 23/20 A2994 RMK A01 T02300196  RH  081%=      5-min Rain = 0
KMD1 250853Z 15011KT 23/20 A2994 RMK A01 T02310195  RH  081%=      5-min Rain = 0
KMD1 250854Z 14009KT 23/20 A2994 RMK A01 T02310197  RH  081%=      5-min Rain = 0
KMD1 250855Z 14012G17KT 23/20 A2994 RMK A01 T02300196  RH  081%=      5-min Rain = 0
KMD1 250856Z 14014KT 23/20 A2994 RMK A01 T02300196  RH  081%=      5-min Rain = 0
KMD1 250857Z 14012KT 23/20 A2994 RMK A01 T02300196  RH  081%=      5-min Rain = 0
KMD1 250858Z 14010KT 23/20 A2994 RMK A01 T02310196  RH  081%=      5-min Rain = 0
KMD1 250859Z 14011KT 23/20 A2994 RMK A01 T02310197  RH  081%=      5-min Rain = 0
KMD1 250900Z 14011KT 23/20 A2994 RMK A01 T02310197  RH  081%=      5-min Rain = 0
KMD1 250901Z 14011KT 23/20 A2994 RMK A01 T02310197  RH  081%=      5-min Rain = 0
KMD1 250902Z 14012KT 23/20 A2994 RMK A01 T02300197  RH  081%=      5-min Rain = 0
KMD1 250903Z 14013KT 23/20 A2994 RMK A01 T02310197  RH  081%=      5-min Rain = 0
KMD1 250904Z 15011KT 23/20 A2994 RMK A01 T02310196  RH  081%=      5-min Rain = 0
KMD1 250905Z 14010KT 23/20 A2994 RMK A01 T02300196  RH  081%=      5-min Rain = 0
KMD1 250906Z 14009KT 23/20 A2994 RMK A01 T02300197  RH  081%=      5-min Rain = 0
KMD1 250907Z 14013KT 23/20 A2994 RMK A01 T02290197  RH  082%=      5-min Rain = 0
KMD1 250908Z 14011KT 23/20 A2994 RMK A01 T02290196  RH  082%=      5-min Rain = 0
KMD1 250909Z 14013KT 23/20 A2994 RMK A01 T02290196  RH  081%=      5-min Rain = 0
KMD1 250910Z 14012KT 23/20 A2994 RMK A01 T02290196  RH  081%=      5-min Rain = 0
KMD1 250911Z 14013KT 23/20 A2994 RMK A01 T02290196  RH  081%=      5-min Rain = 0
KMD1 250912Z 13013KT 23/20 A2994 RMK A01 T02300196  RH  081%=      5-min Rain = 0
KMD1 250913Z 15012KT 23/20 A2994 RMK A01 T02300196  RH  081%=      5-min Rain = 0
KMD1 250914Z 14012KT 23/20 A2994 RMK A01 T02300196  RH  081%=      5-min Rain = 0
KMD1 250915Z 14010KT 23/20 A2994 RMK A01 T02300196  RH  081%=      5-min Rain = 0
KMD1 250916Z 14009KT 23/20 A2994 RMK A01 T02300197  RH  082%=      5-min Rain = 0
KMD1 250917Z 14013KT 23/20 A2994 RMK A01 T02290197  RH  082%=      5-min Rain = 0
KMD1 250918Z 15014KT 23/20 A2994 RMK A01 T02290196  RH  082%=      5-min Rain = 0
KMD1 250919Z 14009KT 23/20 A2994 RMK A01 T02290196  RH  081%=      5-min Rain = 0
KMD1 250920Z 14010KT 23/20 A2994 RMK A01 T02300197  RH  082%=      5-min Rain = 0
KMD1 250921Z 13010KT 23/20 A2994 RMK A01 T02290197  RH  082%=      5-min Rain = 0
KMD1 250922Z 14009KT 23/20 A2994 RMK A01 T02290197  RH  082%=      5-min Rain = 0
KMD1 250923Z 13008KT 23/20 A2994 RMK A01 T02290197  RH  082%=      5-min Rain = 0
KMD1 250924Z 13010KT 23/20 A2994 RMK A01 T02280196  RH  082%=      5-min Rain = 0
KMD1 250925Z 13008KT 23/20 A2994 RMK A01 T02280197  RH  082%=      5-min Rain = 0
KMD1 250926Z 14011KT 23/20 A2994 RMK A01 T02280197  RH  082%=      5-min Rain = 0
KMD1 250927Z 13011KT 23/20 A2994 RMK A01 T02280196  RH  082%=      5-min Rain = 0
KMD1 250928Z 13008KT 23/20 A2994 RMK A01 T02280196  RH  082%=      5-min Rain = 0
KMD1 250929Z 14009KT 23/20 A2994 RMK A01 T02290197  RH  082%=      5-min Rain = 0
KMD1 250930Z 13012KT 23/20 A2994 RMK A01 T02280197  RH  082%=      5-min Rain = 0
KMD1 250931Z 14011KT 23/20 A2994 RMK A01 T02280197  RH  082%=      5-min Rain = 0
KMD1 250932Z 14009KT 23/20 A2994 RMK A01 T02280196  RH  082%=      5-min Rain = 0
KMD1 250933Z 14011KT 23/20 A2994 RMK A01 T02280197  RH  082%=      5-min Rain = 0
KMD1 250934Z 15011KT 23/20 A2994 RMK A01 T02280196  RH  082%=      5-min Rain = 0
KMD1 250935Z 13010KT 23/20 A2994 RMK A01 T02280196  RH  082%=      5-min Rain = 0
KMD1 250936Z 14010KT 23/20 A2994 RMK A01 T02290197  RH  082%=      5-min Rain = 0
KMD1 250937Z 14010KT 23/20 A2994 RMK A01 T02290196  RH  082%=      5-min Rain = 0
KMD1 250938Z 14010KT 23/20 A2994 RMK A01 T02290196  RH  082%=      5-min Rain = 0
KMD1 250939Z 14012KT 23/20 A2994 RMK A01 T02290197  RH  082%=      5-min Rain = 0
KMD1 250940Z 14011KT 23/20 A2994 RMK A01 T02290197  RH  082%=      5-min Rain = 0
KMD1 250941Z 15013KT 23/20 A2994 RMK A01 T02290197  RH  082%=      5-min Rain = 0
KMD1 250942Z 15010KT 23/20 A2994 RMK A01 T02290196  RH  082%=      5-min Rain = 0
KMD1 250943Z 14008KT 23/20 A2994 RMK A01 T02300197  RH  082%=      5-min Rain = 0
KMD1 250944Z 14010KT 23/20 A2994 RMK A01 T02300197  RH  082%=      5-min Rain = 0
KMD1 250945Z 15008KT 23/20 A2994 RMK A01 T02300197  RH  082%=      5-min Rain = 0
KMD1 250946Z 14009KT 23/20 A2994 RMK A01 T02290198  RH  082%=      5-min Rain = 0
KMD1 250947Z 14010KT 23/20 A2994 RMK A01 T02290197  RH  082%=      5-min Rain = 0
KMD1 250948Z 14007KT 23/20 A2995 RMK A01 T02290197  RH  082%=      5-min Rain = 0
KMD1 250949Z 14006KT 23/20 A2995 RMK A01 T02290197  RH  082%=      5-min Rain = 0
KMD1 250950Z 14007KT 23/20 A2995 RMK A01 T02290197  RH  082%=      5-min Rain = 0
KMD1 250951Z 14006KT 23/20 A2995 RMK A01 T02290198  RH  083%=      5-min Rain = 0
KMD1 250952Z 13011KT 23/20 A2995 RMK A01 T02290198  RH  083%=      5-min Rain = 0
KMD1 250953Z 14008KT 23/20 A2995 RMK A01 T02290198  RH  083%=      5-min Rain = 0
KMD1 250954Z 13008KT 23/20 A2995 RMK A01 T02280198  RH  083%=      5-min Rain = 0
KMD1 250955Z 14008KT 23/20 A2995 RMK A01 T02290198  RH  083%=      5-min Rain = 0
KMD1 250956Z 14007KT 23/20 A2995 RMK A01 T02280198  RH  083%=      5-min Rain = 0
KMD1 250957Z 14007KT 23/20 A2995 RMK A01 T02280198  RH  083%=      5-min Rain = 0
KMD1 250958Z 14008KT 23/20 A2995 RMK A01 T02280197  RH  083%=      5-min Rain = 0
KMD1 250959Z 14009KT 23/20 A2995 RMK A01 T02280198  RH  083%=      5-min Rain = 0
KMD1 251000Z 14010KT 23/20 A2995 RMK A01 T02290198  RH  083%=      5-min Rain = 0
KMD1 251001Z 13010KT 23/20 A2995 RMK A01 T02280198  RH  083%=      5-min Rain = 0
KMD1 251002Z 14008KT 23/20 A2995 RMK A01 T02280198  RH  083%=      5-min Rain = 0
KMD1 251003Z 13009KT 23/20 A2995 RMK A01 T02280198  RH  083%=      5-min Rain = 0
KMD1 251004Z 14010KT 23/20 A2995 RMK A01 T02280198  RH  083%=      5-min Rain = 0
KMD1 251005Z 14009KT 23/20 A2995 RMK A01 T02280198  RH  083%=      5-min Rain = 0
KMD1 251006Z 14007KT 23/20 A2995 RMK A01 T02280197  RH  083%=      5-min Rain = 0
KMD1 251007Z 15008KT 23/20 A2995 RMK A01 T02290197  RH  083%=      5-min Rain = 0
KMD1 251008Z 15007KT 23/20 A2995 RMK A01 T02290198  RH  083%=      5-min Rain = 0
KMD1 251009Z 14009KT 23/20 A2995 RMK A01 T02290198  RH  083%=      5-min Rain = 0
KMD1 251010Z 14010KT 23/20 A2995 RMK A01 T02290197  RH  083%=      5-min Rain = 0
KMD1 251011Z 14010KT 23/20 A2995 RMK A01 T02290198  RH  083%=      5-min Rain = 0
KMD1 251012Z 14013KT 23/20 A2995 RMK A01 T02290198  RH  083%=      5-min Rain = 0
KMD1 251013Z 15012KT 23/20 A2995 RMK A01 T02290197  RH  082%=      5-min Rain = 0
KMD1 251014Z 15010KT 23/20 A2995 RMK A01 T02290197  RH  082%=      5-min Rain = 0
KMD1 251015Z 15013KT 23/20 A2995 RMK A01 T02290197  RH  082%=      5-min Rain = 0
KMD1 251016Z 15010KT 23/20 A2995 RMK A01 T02290197  RH  082%=      5-min Rain = 0
KMD1 251017Z 14009KT 23/20 A2995 RMK A01 T02290197  RH  082%=      5-min Rain = 0
KMD1 251018Z 15011KT 23/20 A2995 RMK A01 T02290197  RH  082%=      5-min Rain = 0
KMD1 251019Z 15009KT 23/20 A2995 RMK A01 T02290197  RH  082%=      5-min Rain = 0
KMD1 251020Z 16008KT 23/20 A2995 RMK A01 T02290197  RH  082%=      5-min Rain = 0
KMD1 251021Z 14007KT 23/20 A2995 RMK A01 T02290198  RH  082%=      5-min Rain = 0
KMD1 251022Z 15008KT 23/20 A2995 RMK A01 T02290198  RH  082%=      5-min Rain = 0
KMD1 251023Z 14009KT 23/20 A2995 RMK A01 T02290198  RH  083%=      5-min Rain = 0
KMD1 251024Z 15009KT 23/20 A2995 RMK A01 T02290198  RH  083%=      5-min Rain = 0
KMD1 251025Z 15010KT 23/20 A2995 RMK A01 T02290199  RH  083%=      5-min Rain = 0
KMD1 251026Z 14012KT 23/20 A2995 RMK A01 T02290198  RH  083%=      5-min Rain = 0
KMD1 251027Z 15011KT 23/20 A2995 RMK A01 T02290198  RH  082%=      5-min Rain = 0
KMD1 251028Z 15010KT 23/20 A2996 RMK A01 T02300198  RH  082%=      5-min Rain = 0
KMD1 251029Z 14010KT 23/20 A2996 RMK A01 T02300198  RH  082%=      5-min Rain = 0
KMD1 251030Z 15007KT 23/20 A2996 RMK A01 T02290198  RH  082%=      5-min Rain = 0
KMD1 251031Z 15008KT 23/20 A2996 RMK A01 T02300198  RH  082%=      5-min Rain = 0
KMD1 251032Z 15007KT 23/20 A2996 RMK A01 T02300198  RH  082%=      5-min Rain = 0
KMD1 251033Z 14009KT 23/20 A2996 RMK A01 T02300199  RH  083%=      5-min Rain = 0
KMD1 251034Z 15009KT 23/20 A2996 RMK A01 T02300199  RH  082%=      5-min Rain = 0
KMD1 251035Z 15010KT 23/20 A2996 RMK A01 T02300199  RH  083%=      5-min Rain = 0
KMD1 251036Z 15010KT 23/20 A2996 RMK A01 T02300198  RH  082%=      5-min Rain = 0
KMD1 251037Z 15008KT 23/20 A2996 RMK A01 T02300198  RH  082%=      5-min Rain = 0
KMD1 251038Z 15008KT 23/20 A2996 RMK A01 T02300198  RH  082%=      5-min Rain = 0
KMD1 251039Z 15008KT 23/20 A2996 RMK A01 T02300198  RH  083%=      5-min Rain = 0
KMD1 251040Z 14006KT 23/20 A2996 RMK A01 T02300198  RH  083%=      5-min Rain = 0
KMD1 251041Z 13006KT 23/20 A2996 RMK A01 T02300199  RH  083%=      5-min Rain = 0
KMD1 251042Z 13009KT 23/20 A2996 RMK A01 T02290199  RH  083%=      5-min Rain = 0
KMD1 251043Z 14008KT 23/20 A2996 RMK A01 T02290199  RH  083%=      5-min Rain = 0
KMD1 251044Z 14008KT 23/20 A2996 RMK A01 T02290199  RH  083%=      5-min Rain = 0
KMD1 251045Z 14009KT 23/20 A2996 RMK A01 T02290199  RH  083%=      5-min Rain = 0
KMD1 251046Z 14008KT 23/20 A2996 RMK A01 T02290199  RH  083%=      5-min Rain = 0
KMD1 251047Z 14009KT 23/20 A2996 RMK A01 T02290199  RH  083%=      5-min Rain = 0
KMD1 251048Z 14010KT 23/20 A2996 RMK A01 T02290199  RH  083%=      5-min Rain = 0
KMD1 251049Z 13009KT 23/20 A2996 RMK A01 T02290199  RH  083%=      5-min Rain = 0
KMD1 251050Z 13008KT 23/20 A2996 RMK A01 T02290199  RH  083%=      5-min Rain = 0
KMD1 251051Z 14009KT 23/20 A2996 RMK A01 T02290199  RH  083%=      5-min Rain = 0
KMD1 251052Z 14007KT 23/20 A2997 RMK A01 T02290200  RH  083%=      5-min Rain = 0
KMD1 251053Z 14006KT 23/20 A2997 RMK A01 T02290199  RH  084%=      5-min Rain = 0
KMD1 251054Z 14006KT 23/20 A2997 RMK A01 T02280199  RH  084%=      5-min Rain = 0
KMD1 251055Z 14007KT 23/20 A2997 RMK A01 T02290200  RH  084%=      5-min Rain = 0
KMD1 251056Z 14007KT 23/20 A2997 RMK A01 T02280199  RH  084%=      5-min Rain = 0
KMD1 251057Z 14009KT 23/20 A2997 RMK A01 T02280199  RH  084%=      5-min Rain = 0
KMD1 251058Z 13006KT 23/20 A2997 RMK A01 T02280199  RH  084%=      5-min Rain = 0
KMD1 251059Z 13007KT 23/20 A2997 RMK A01 T02280200  RH  084%=      5-min Rain = 0
KMD1 251100Z 14007KT 23/20 A2997 RMK A01 T02280199  RH  084%=      5-min Rain = 0
KMD1 251101Z 13005KT 23/20 A2997 RMK A01 T02280199  RH  084%=      5-min Rain = 0
KMD1 251102Z 12006KT 23/20 A2997 RMK A01 T02280200  RH  084%=      5-min Rain = 0
KMD1 251103Z 14005KT 23/20 A2997 RMK A01 T02280200  RH  084%=      5-min Rain = 0
KMD1 251104Z 13005KT 23/20 A2997 RMK A01 T02270201  RH  085%=      5-min Rain = 0
KMD1 251105Z 13007KT 23/20 A2997 RMK A01 T02270201  RH  085%=      5-min Rain = 0
KMD1 251106Z 14007KT 23/20 A2997 RMK A01 T02260200  RH  085%=      5-min Rain = 0
KMD1 251107Z 13006KT 23/20 A2997 RMK A01 T02260199  RH  085%=      5-min Rain = 0
KMD1 251108Z 15007KT 23/20 A2997 RMK A01 T02270200  RH  085%=      5-min Rain = 0
KMD1 251109Z 13005KT 23/20 A2997 RMK A01 T02270199  RH  084%=      5-min Rain = 0
KMD1 251110Z 13006KT 23/20 A2997 RMK A01 T02270201  RH  085%=      5-min Rain = 0
KMD1 251111Z 13006KT 23/20 A2997 RMK A01 T02270201  RH  085%=      5-min Rain = 0
KMD1 251112Z 13006KT 23/20 A2997 RMK A01 T02270201  RH  085%=      5-min Rain = 0
KMD1 251113Z 14007KT 23/20 A2997 RMK A01 T02260201  RH  086%=      5-min Rain = 0
KMD1 251114Z 14007KT 23/20 A2997 RMK A01 T02260200  RH  085%=      5-min Rain = 0
KMD1 251115Z 15006KT 23/20 A2998 RMK A01 T02260200  RH  085%=      5-min Rain = 0
KMD1 251116Z 14006KT 23/20 A2998 RMK A01 T02270200  RH  085%=      5-min Rain = 0
KMD1 251117Z 13007KT 23/20 A2998 RMK A01 T02270200  RH  085%=      5-min Rain = 0
KMD1 251118Z 14007KT 23/20 A2998 RMK A01 T02270200  RH  085%=      5-min Rain = 0
KMD1 251119Z 14006KT 23/20 A2998 RMK A01 T02270200  RH  085%=      5-min Rain = 0
KMD1 251120Z 13007KT 23/20 A2998 RMK A01 T02270200  RH  085%=      5-min Rain = 0
KMD1 251121Z 13006KT 23/20 A2998 RMK A01 T02270200  RH  085%=      5-min Rain = 0
KMD1 251122Z 14006KT 23/20 A2998 RMK A01 T02270200  RH  085%=      5-min Rain = 0
KMD1 251123Z 13008KT 23/20 A2998 RMK A01 T02270200  RH  085%=      5-min Rain = 0
KMD1 251124Z 13008KT 23/20 A2998 RMK A01 T02270201  RH  085%=      5-min Rain = 0
KMD1 251125Z 14007KT 23/20 A2998 RMK A01 T02270200  RH  085%=      5-min Rain = 0
KMD1 251126Z 13008KT 23/20 A2998 RMK A01 T02270200  RH  085%=      5-min Rain = 0
KMD1 251127Z 13008KT 23/20 A2998 RMK A01 T02270201  RH  085%=      5-min Rain = 0
KMD1 251128Z 13007KT 23/20 A2998 RMK A01 T02270201  RH  085%=      5-min Rain = 0
KMD1 251129Z 14008KT 23/20 A2998 RMK A01 T02270200  RH  085%=      5-min Rain = 0
KMD1 251130Z 14007KT 23/20 A2998 RMK A01 T02270200  RH  085%=      5-min Rain = 0
KMD1 251131Z 13007KT 23/20 A2998 RMK A01 T02270201  RH  085%=      5-min Rain = 0
KMD1 251132Z 14008KT 23/20 A2998 RMK A01 T02270201  RH  085%=      5-min Rain = 0
KMD1 251133Z 14009KT 23/20 A2998 RMK A01 T02270201  RH  085%=      5-min Rain = 0
KMD1 251134Z 13007KT 23/20 A2998 RMK A01 T02270200  RH  085%=      5-min Rain = 0
KMD1 251135Z 13007KT 23/20 A2998 RMK A01 T02270201  RH  085%=      5-min Rain = 0
KMD1 251136Z 13007KT 23/20 A2998 RMK A01 T02270202  RH  086%=      5-min Rain = 0
KMD1 251137Z 12006KT 23/20 A2998 RMK A01 T02270202  RH  086%=      5-min Rain = 0
KMD1 251138Z 13007KT 23/20 A2998 RMK A01 T02260202  RH  086%=      5-min Rain = 0
KMD1 251139Z 13007KT 23/20 A2998 RMK A01 T02260202  RH  086%=      5-min Rain = 0
KMD1 251140Z 12005KT 23/20 A2998 RMK A01 T02260202  RH  086%=      5-min Rain = 0
KMD1 251141Z 12008KT 23/20 A2998 RMK A01 T02260202  RH  087%=      5-min Rain = 0
KMD1 251142Z 13007KT 23/20 A2998 RMK A01 T02250202  RH  086%=      5-min Rain = 0
KMD1 251143Z 12006KT 23/20 A2998 RMK A01 T02250202  RH  086%=      5-min Rain = 0
KMD1 251144Z 12008KT 23/20 A2998 RMK A01 T02250202  RH  087%=      5-min Rain = 0
KMD1 251145Z 13009KT 23/20 A2998 RMK A01 T02260202  RH  087%=      5-min Rain = 0
KMD1 251146Z 12007KT 23/20 A2998 RMK A01 T02260202  RH  087%=      5-min Rain = 0
KMD1 251147Z 12008KT 23/20 A2998 RMK A01 T02250202  RH  087%=      5-min Rain = 0
KMD1 251148Z 12008KT 23/20 A2998 RMK A01 T02250202  RH  087%=      5-min Rain = 0
KMD1 251149Z 13008KT 23/20 A2998 RMK A01 T02250202  RH  087%=      5-min Rain = 0
KMD1 251150Z 13007KT 23/20 A2999 RMK A01 T02250202  RH  087%=      5-min Rain = 0
KMD1 251151Z 12006KT 23/20 A2999 RMK A01 T02260203  RH  087%=      5-min Rain = 0
KMD1 251152Z 12008KT 23/20 A2999 RMK A01 T02250203  RH  087%=      5-min Rain = 0
KMD1 251153Z 13007KT 23/20 A2999 RMK A01 T02250203  RH  087%=      5-min Rain = 0
KMD1 251154Z 12006KT 23/20 A2999 RMK A01 T02250203  RH  087%=      5-min Rain = 0
KMD1 251155Z 12007KT 23/20 A2999 RMK A01 T02250203  RH  087%=      5-min Rain = 0
KMD1 251156Z 12006KT 23/20 A2999 RMK A01 T02250203  RH  087%=      5-min Rain = 0
KMD1 251157Z 12006KT 23/20 A2999 RMK A01 T02260203  RH  087%=      5-min Rain = 0
KMD1 251158Z 12006KT 23/20 A2999 RMK A01 T02250204  RH  087%=      5-min Rain = 0
KMD1 251159Z 12007KT 23/20 A2999 RMK A01 T02250203  RH  087%=      5-min Rain = 0
KMD1 251200Z 12007KT 23/20 A2999 RMK A01 T02260204  RH  087%=      5-min Rain = 0
KMD1 251201Z 12008KT 23/20 A2999 RMK A01 T02250203  RH  087%=      5-min Rain = 0
KMD1 251202Z 13008KT 23/20 A2999 RMK A01 T02250203  RH  087%=      5-min Rain = 0
KMD1 251203Z 12007KT 23/20 A2999 RMK A01 T02250204  RH  087%=      5-min Rain = 0
KMD1 251204Z 12007KT 23/20 A2999 RMK A01 T02260204  RH  088%=      5-min Rain = 0
KMD1 251205Z 12007KT 23/20 A2999 RMK A01 T02250204  RH  088%=      5-min Rain = 0
KMD1 251206Z 12007KT 23/20 A2999 RMK A01 T02250204  RH  088%=      5-min Rain = 0
KMD1 251207Z 12009KT 23/21 A30 RMK A01 T02250205  RH  088%=      5-min Rain = 0
KMD1 251208Z 13007KT 23/20 A30 RMK A01 T02250204  RH  088%=      5-min Rain = 0
KMD1 251209Z 13007KT 23/21 A30 RMK A01 T02250205  RH  088%=      5-min Rain = 0
KMD1 251210Z 13008KT 23/21 A30 RMK A01 T02250205  RH  089%=      5-min Rain = 0
KMD1 251211Z 13008KT 22/21 A30 RMK A01 T02240205  RH  089%=      5-min Rain = 0
KMD1 251212Z 14007KT 22/21 A30 RMK A01 T02240205  RH  089%=      5-min Rain = 0
KMD1 251213Z 13007KT 22/21 A30 RMK A01 T02240206  RH  089%=      5-min Rain = 0
KMD1 251214Z 14008KT 22/21 A30 RMK A01 T02240206  RH  089%=      5-min Rain = 0
KMD1 251215Z 14007KT 22/21 A30 RMK A01 T02240206  RH  090%=      5-min Rain = 0
KMD1 251216Z 14007KT 22/21 A30 RMK A01 T02240206  RH  090%=      5-min Rain = 0
KMD1 251217Z 14008KT 22/21 A30 RMK A01 T02240205  RH  089%=      5-min Rain = 0
KMD1 251218Z 13007KT 22/21 A30 RMK A01 T02240205  RH  089%=      5-min Rain = 0
KMD1 251219Z 13006KT 22/21 A30 RMK A01 T02240206  RH  090%=      5-min Rain = 0
KMD1 251220Z 14006KT 22/21 A30 RMK A01 T02230206  RH  090%=      5-min Rain = 0
KMD1 251221Z 15006KT 22/21 A30 RMK A01 T02230206  RH  090%=      5-min Rain = 0
KMD1 251222Z 14008KT 22/21 A30 RMK A01 T02230205  RH  090%=      5-min Rain = 0
KMD1 251223Z 14007KT 22/21 A30 RMK A01 T02240206  RH  089%=      5-min Rain = 0
KMD1 251224Z 14007KT 22/21 A30 RMK A01 T02240205  RH  089%=      5-min Rain = 0
KMD1 251225Z 15006KT 22/21 A30 RMK A01 T02230205  RH  089%=      5-min Rain = 0
KMD1 251226Z 14005KT 22/21 A30 RMK A01 T02240205  RH  089%=      5-min Rain = 0
KMD1 251227Z 14004KT 22/21 A30 RMK A01 T02230206  RH  090%=      5-min Rain = 0
KMD1 251228Z 14005G10KT 22/21 A30 RMK A01 T02240206  RH  090%=      5-min Rain = 0
KMD1 251229Z 14009KT 22/21 A30 RMK A01 T02240206  RH  090%=      5-min Rain = 0
KMD1 251230Z 14007KT 22/21 A30 RMK A01 T02240206  RH  090%=      5-min Rain = 0
KMD1 251231Z 13006KT 22/21 A30 RMK A01 T02240206  RH  090%=      5-min Rain = 0
KMD1 251232Z 14008KT 22/21 A30 RMK A01 T02240207  RH  090%=      5-min Rain = 0
KMD1 251233Z 13009KT 22/21 A30 RMK A01 T02230207  RH  090%=      5-min Rain = 0
KMD1 251234Z 13007KT 22/21 A30 RMK A01 T02230206  RH  090%=      5-min Rain = 0
KMD1 251235Z 14008KT 22/21 A30 RMK A01 T02230206  RH  090%=      5-min Rain = 0
KMD1 251236Z 14007KT 22/21 A30 RMK A01 T02230207  RH  090%=      5-min Rain = 0
KMD1 251237Z 14006KT 22/21 A30 RMK A01 T02230207  RH  091%=      5-min Rain = 0
KMD1 251238Z 14006KT 22/21 A30 RMK A01 T02230208  RH  091%=      5-min Rain = 0
KMD1 251239Z 15005KT 22/21 A30 RMK A01 T02220208  RH  092%=      5-min Rain = 0
KMD1 251240Z 15007KT 22/21 A30 RMK A01 T02220208  RH  092%=      5-min Rain = 0
KMD1 251241Z 15008KT 22/21 A30 RMK A01 T02220208  RH  092%=      5-min Rain = 0
KMD1 251242Z 15006KT 22/21 A30 RMK A01 T02220208  RH  092%=      5-min Rain = 0
KMD1 251243Z 14006KT 22/21 A30 RMK A01 T02220209  RH  092%=      5-min Rain = 0
KMD1 251244Z 15006KT 22/21 A3001 RMK A01 T02210208  RH  092%=      5-min Rain = 0
KMD1 251245Z 14005KT 22/21 A3001 RMK A01 T02210208  RH  092%=      5-min Rain = 0
KMD1 251246Z 14006KT 22/21 A3001 RMK A01 T02210209  RH  093%=      5-min Rain = 0
KMD1 251247Z 15008KT 22/21 A3001 RMK A01 T02210209  RH  093%=      5-min Rain = 0
KMD1 251248Z 14007KT 22/21 A3001 RMK A01 T02210208  RH  093%=      5-min Rain = 0
KMD1 251249Z 15006KT 22/21 A3001 RMK A01 T02210208  RH  092%=      5-min Rain = 0
KMD1 251250Z 14006KT 22/21 A3001 RMK A01 T02210209  RH  093%=      5-min Rain = 0
KMD1 251251Z 14006KT 22/21 A3001 RMK A01 T02210209  RH  093%=      5-min Rain = 0
KMD1 251252Z 14005KT 22/21 A3001 RMK A01 T02210208  RH  093%=      5-min Rain = 0
KMD1 251253Z 14006KT 22/21 A3001 RMK A01 T02210209  RH  093%=      5-min Rain = 0
KMD1 251254Z 14005KT 22/21 A3001 RMK A01 T02210208  RH  093%=      5-min Rain = 0
KMD1 251255Z 14006KT 22/21 A3001 RMK A01 T02210209  RH  093%=      5-min Rain = 0
KMD1 251256Z 14007KT 22/21 A3001 RMK A01 T02210209  RH  093%=      5-min Rain = 0
KMD1 251257Z 15006KT 22/21 A3001 RMK A01 T02210209  RH  093%=      5-min Rain = 0
KMD1 251258Z 14006KT 22/21 A3001 RMK A01 T02210208  RH  092%=      5-min Rain = 0
KMD1 251259Z 14006KT 22/21 A3001 RMK A01 T02210209  RH  092%=      5-min Rain = 0
KMD1 251300Z 14005KT 22/21 A3001 RMK A01 T02210209  RH  093%=      5-min Rain = 0
KMD1 251301Z 14006KT 22/21 A3001 RMK A01 T02210209  RH  093%=      5-min Rain = 0
KMD1 251302Z 15005KT 22/21 A3001 RMK A01 T02220209  RH  093%=      5-min Rain = 0
KMD1 251303Z 15006KT 22/21 A3001 RMK A01 T02220209  RH  093%=      5-min Rain = 0
KMD1 251304Z 14005KT 22/21 A3002 RMK A01 T02210209  RH  093%=      5-min Rain = 0
KMD1 251305Z 14005KT 22/21 A3002 RMK A01 T02210210  RH  093%=      5-min Rain = 0
KMD1 251306Z 15006KT 22/21 A3002 RMK A01 T02210210  RH  093%=      5-min Rain = 0
KMD1 251307Z 14005KT 22/21 A3002 RMK A01 T02210210  RH  094%=      5-min Rain = 0
KMD1 251308Z 14007KT 22/21 A3002 RMK A01 T02210210  RH  094%=      5-min Rain = 0
KMD1 251309Z 15007KT 22/21 A3002 RMK A01 T02210210  RH  093%=      5-min Rain = 0
KMD1 251310Z 15006KT 22/21 A3002 RMK A01 T02210210  RH  093%=      5-min Rain = 0
KMD1 251311Z 14006KT 22/21 A3002 RMK A01 T02210210  RH  093%=      5-min Rain = 0
KMD1 251312Z 15006KT 22/21 A3002 RMK A01 T02210210  RH  094%=      5-min Rain = 0
KMD1 251313Z 15007KT 22/21 A3002 RMK A01 T02210210  RH  094%=      5-min Rain = 0
KMD1 251314Z 14007KT 22/21 A3002 RMK A01 T02210211  RH  094%=      5-min Rain = 0
KMD1 251315Z 14007KT 22/21 A3002 RMK A01 T02210211  RH  094%=      5-min Rain = 0
KMD1 251316Z 13006KT 22/21 A3002 RMK A01 T02210210  RH  093%=      5-min Rain = 0
KMD1 251317Z 14006KT 22/21 A3002 RMK A01 T02220211  RH  094%=      5-min Rain = 0
KMD1 251318Z 14006KT 22/21 A3002 RMK A01 T02220212  RH  094%=      5-min Rain = 0
KMD1 251319Z 14007KT 22/21 A3002 RMK A01 T02220212  RH  094%=      5-min Rain = 0
KMD1 251320Z 14006KT 22/21 A3002 RMK A01 T02220212  RH  094%=      5-min Rain = 0
KMD1 251321Z 13008KT 22/21 A3002 RMK A01 T02220211  RH  094%=      5-min Rain = 0
KMD1 251322Z 14007KT 22/21 A3002 RMK A01 T02220211  RH  093%=      5-min Rain = 0
KMD1 251323Z 14007KT 22/21 A3002 RMK A01 T02220211  RH  093%=      5-min Rain = 0
KMD1 251324Z 15007KT 22/21 A3002 RMK A01 T02220211  RH  093%=      5-min Rain = 0
KMD1 251325Z 14008KT 22/21 A3002 RMK A01 T02230211  RH  093%=      5-min Rain = 0
KMD1 251326Z 15007KT 22/21 A3002 RMK A01 T02230211  RH  093%=      5-min Rain = 0
KMD1 251327Z 15009KT 22/21 A3002 RMK A01 T02230211  RH  093%=      5-min Rain = 0
KMD1 251328Z 14007KT 22/21 A3002 RMK A01 T02240211  RH  093%=      5-min Rain = 0
KMD1 251329Z 14008KT 22/21 A3002 RMK A01 T02240212  RH  093%=      5-min Rain = 0
KMD1 251330Z 14008KT 22/21 A3002 RMK A01 T02240212  RH  092%=      5-min Rain = 0
KMD1 251331Z 14006KT 23/21 A3002 RMK A01 T02250211  RH  092%=      5-min Rain = 0
KMD1 251332Z 14007KT 23/21 A3002 RMK A01 T02250212  RH  093%=      5-min Rain = 0
KMD1 251333Z 15007KT 23/21 A3002 RMK A01 T02250212  RH  093%=      5-min Rain = 0
KMD1 251334Z 15008KT 23/21 A3002 RMK A01 T02250212  RH  092%=      5-min Rain = 0
KMD1 251335Z 16006KT 23/21 A3002 RMK A01 T02260211  RH  092%=      5-min Rain = 0
KMD1 251336Z 15008KT 23/21 A3002 RMK A01 T02260212  RH  092%=      5-min Rain = 0
KMD1 251337Z 15006KT 23/21 A3002 RMK A01 T02260212  RH  092%=      5-min Rain = 0
KMD1 251338Z 14008KT 23/21 A3002 RMK A01 T02270212  RH  091%=      5-min Rain = 0
KMD1 251339Z 14008KT 23/21 A3002 RMK A01 T02270211  RH  091%=      5-min Rain = 0
KMD1 251340Z 15007KT 23/21 A3002 RMK A01 T02270211  RH  091%=      5-min Rain = 0
KMD1 251341Z 14007KT 23/21 A3002 RMK A01 T02280212  RH  091%=      5-min Rain = 0
KMD1 251342Z 14009KT 23/21 A3002 RMK A01 T02280213  RH  091%=      5-min Rain = 0
KMD1 251343Z 14008KT 23/21 A3003 RMK A01 T02280213  RH  091%=      5-min Rain = 0
KMD1 251344Z 14009KT 23/21 A3003 RMK A01 T02290213  RH  091%=      5-min Rain = 0
KMD1 251345Z 15008KT 23/21 A3003 RMK A01 T02290212  RH  090%=      5-min Rain = 0
KMD1 251346Z 15009KT 23/21 A3003 RMK A01 T02290212  RH  090%=      5-min Rain = 0
KMD1 251347Z 14009KT 23/21 A3003 RMK A01 T02290212  RH  090%=      5-min Rain = 0
KMD1 251348Z 14007KT 23/21 A3003 RMK A01 T02300212  RH  090%=      5-min Rain = 0
KMD1 251349Z 14007KT 23/21 A3003 RMK A01 T02310213  RH  090%=      5-min Rain = 0
KMD1 251350Z 15010KT 23/21 A3003 RMK A01 T02310214  RH  090%=      5-min Rain = 0
KMD1 251351Z 14009KT 23/21 A3003 RMK A01 T02310213  RH  089%=      5-min Rain = 0
KMD1 251352Z 14010KT 23/21 A3003 RMK A01 T02320213  RH  089%=      5-min Rain = 0
KMD1 251353Z 13009KT 23/21 A3003 RMK A01 T02320212  RH  088%=      5-min Rain = 0
KMD1 251354Z 15008KT 23/21 A3003 RMK A01 T02330214  RH  089%=      5-min Rain = 0
KMD1 251355Z 15008KT 23/21 A3003 RMK A01 T02330213  RH  088%=      5-min Rain = 0
KMD1 251356Z 15009KT 23/21 A3003 RMK A01 T02330214  RH  089%=      5-min Rain = 0
KMD1 251357Z 14008KT 23/21 A3003 RMK A01 T02340214  RH  089%=      5-min Rain = 0
KMD1 251358Z 13010KT 23/21 A3003 RMK A01 T02340214  RH  089%=      5-min Rain = 0
KMD1 251359Z 14009KT 23/21 A3003 RMK A01 T02340212  RH  088%=      5-min Rain = 0
KMD1 251400Z 15009KT 23/21 A3003 RMK A01 T02340213  RH  088%=      5-min Rain = 0
KMD1 251401Z 14008KT 23/21 A3003 RMK A01 T02330213  RH  088%=      5-min Rain = 0
KMD1 251402Z 13009KT 23/22 A3003 RMK A01 T02340215  RH  089%=      5-min Rain = 0
KMD1 251403Z 14012G18KT 23/21 A3003 RMK A01 T02340214  RH  088%=      5-min Rain = 0
KMD1 251404Z 14016KT 23/21 A3003 RMK A01 T02340210  RH  086%=      5-min Rain = 0
KMD1 251405Z 13014KT 23/21 A3003 RMK A01 T02340209  RH  086%=      5-min Rain = 0
KMD1 251406Z 14010KT 24/21 A3003 RMK A01 T02350210  RH  086%=      5-min Rain = 0
KMD1 251407Z 13008KT 24/21 A3003 RMK A01 T02360214  RH  088%=      5-min Rain = 0
KMD1 251408Z 14010KT 24/21 A3003 RMK A01 T02360214  RH  087%=      5-min Rain = 0
KMD1 251409Z 14008KT 24/21 A3003 RMK A01 T02360214  RH  088%=      5-min Rain = 0
KMD1 251410Z 15011KT 24/21 A3003 RMK A01 T02360213  RH  087%=      5-min Rain = 0
KMD1 251411Z 14013KT 24/21 A3003 RMK A01 T02360212  RH  087%=      5-min Rain = 0
KMD1 251412Z 14010KT 24/21 A3003 RMK A01 T02360210  RH  085%=      5-min Rain = 0
KMD1 251413Z 14009G15KT 24/21 A3003 RMK A01 T02360212  RH  086%=      5-min Rain = 0
KMD1 251414Z 14011KT 24/21 A3003 RMK A01 T02370211  RH  085%=      5-min Rain = 0
KMD1 251415Z 15011KT 24/21 A3003 RMK A01 T02360211  RH  086%=      5-min Rain = 0
KMD1 251416Z 14010KT 24/21 A3003 RMK A01 T02370211  RH  086%=      5-min Rain = 0
KMD1 251417Z 14011KT 24/21 A3003 RMK A01 T02380213  RH  086%=      5-min Rain = 0
KMD1 251418Z 14011KT 24/21 A3003 RMK A01 T02380211  RH  085%=      5-min Rain = 0
KMD1 251419Z 14007KT 24/21 A3003 RMK A01 T02380212  RH  085%=      5-min Rain = 0
KMD1 251420Z 14010KT 24/22 A3003 RMK A01 T02390216  RH  087%=      5-min Rain = 0
KMD1 251421Z 14008KT 24/22 A3003 RMK A01 T02400215  RH  086%=      5-min Rain = 0
KMD1 251422Z 13009KT 24/22 A3003 RMK A01 T02400216  RH  087%=      5-min Rain = 0
KMD1 251423Z 14013KT 24/21 A3003 RMK A01 T02400213  RH  085%=      5-min Rain = 0
KMD1 251424Z 15014KT 24/21 A3003 RMK A01 T02400212  RH  084%=      5-min Rain = 0
KMD1 251425Z 14010KT 24/21 A3003 RMK A01 T02400212  RH  084%=      5-min Rain = 0
KMD1 251426Z 15011KT 24/21 A3003 RMK A01 T02420214  RH  084%=      5-min Rain = 0
KMD1 251427Z 15009KT 24/21 A3003 RMK A01 T02420213  RH  084%=      5-min Rain = 0
KMD1 251428Z 14011KT 24/21 A3003 RMK A01 T02420213  RH  084%=      5-min Rain = 0
KMD1 251429Z 13010KT 24/22 A3003 RMK A01 T02420216  RH  085%=      5-min Rain = 0
KMD1 251430Z 14012KT 24/21 A3003 RMK A01 T02420214  RH  084%=      5-min Rain = 0
KMD1 251431Z 13011KT 24/21 A3003 RMK A01 T02410213  RH  084%=      5-min Rain = 0
KMD1 251432Z 14010KT 24/21 A3003 RMK A01 T02410213  RH  084%=      5-min Rain = 0
KMD1 251433Z 14009KT 24/22 A3003 RMK A01 T02410215  RH  085%=      5-min Rain = 0
KMD1 251434Z 14011G16KT 24/21 A3003 RMK A01 T02410214  RH  084%=      5-min Rain = 0
KMD1 251435Z 14010KT 24/21 A3003 RMK A01 T02420213  RH  084%=      5-min Rain = 0
KMD1 251436Z 13010KT 24/21 A3003 RMK A01 T02410213  RH  084%=      5-min Rain = 0
KMD1 251437Z 13012KT 24/21 A3003 RMK A01 T02420214  RH  084%=      5-min Rain = 0
KMD1 251438Z 14011KT 24/21 A3003 RMK A01 T02420212  RH  083%=      5-min Rain = 0
KMD1 251439Z 14013KT 24/21 A3003 RMK A01 T02420212  RH  083%=      5-min Rain = 0
KMD1 251440Z 14013KT 24/21 A3003 RMK A01 T02420211  RH  083%=      5-min Rain = 0
KMD1 251441Z 14012KT 24/21 A3003 RMK A01 T02420214  RH  084%=      5-min Rain = 0
KMD1 251442Z 14012KT 24/21 A3003 RMK A01 T02430212  RH  083%=      5-min Rain = 0
KMD1 251443Z 15012KT 24/21 A3003 RMK A01 T02430212  RH  083%=      5-min Rain = 0
KMD1 251444Z 14013KT 24/21 A3003 RMK A01 T02440212  RH  082%=      5-min Rain = 0
KMD1 251445Z 14012KT 24/21 A3003 RMK A01 T02430211  RH  082%=      5-min Rain = 0
KMD1 251446Z 14013KT 24/21 A3003 RMK A01 T02440212  RH  082%=      5-min Rain = 0
KMD1 251447Z 15011KT 24/21 A3003 RMK A01 T02440213  RH  083%=      5-min Rain = 0
KMD1 251448Z 15010KT 25/21 A3003 RMK A01 T02450212  RH  082%=      5-min Rain = 0
KMD1 251449Z 14008KT 25/21 A3003 RMK A01 T02450212  RH  082%=      5-min Rain = 0
KMD1 251450Z 14009KT 25/22 A3003 RMK A01 T02460216  RH  083%=      5-min Rain = 0
KMD1 251451Z 14011KT 25/22 A3003 RMK A01 T02470215  RH  083%=      5-min Rain = 0
KMD1 251452Z 15009KT 25/21 A3003 RMK A01 T02470213  RH  081%=      5-min Rain = 0
KMD1 251453Z 13009KT 25/21 A3003 RMK A01 T02470214  RH  082%=      5-min Rain = 0
KMD1 251454Z 15010G16KT 25/22 A3003 RMK A01 T02470217  RH  084%=      5-min Rain = 0
KMD1 251455Z 15011KT 25/21 A3003 RMK A01 T02480214  RH  082%=      5-min Rain = 0
KMD1 251456Z 14013KT 25/21 A3003 RMK A01 T02480214  RH  081%=      5-min Rain = 0
KMD1 251457Z 14012KT 25/21 A3004 RMK A01 T02480214  RH  081%=      5-min Rain = 0
KMD1 251458Z 14013G18KT 25/21 A3003 RMK A01 T02470213  RH  081%=      5-min Rain = 0
KMD1 251459Z 14013KT 25/21 A3003 RMK A01 T02470212  RH  081%=      5-min Rain = 0
KMD1 251500Z 14010KT 25/21 A3004 RMK A01 T02470214  RH  082%=      5-min Rain = 0
KMD1 251501Z 15012KT 25/21 A3003 RMK A01 T02460213  RH  082%=      5-min Rain = 0
KMD1 251502Z 14010KT 25/21 A3004 RMK A01 T02460213  RH  082%=      5-min Rain = 0
KMD1 251503Z 14012KT 25/21 A3004 RMK A01 T02460213  RH  082%=      5-min Rain = 0
KMD1 251504Z 14012G18KT 25/21 A3004 RMK A01 T02460214  RH  082%=      5-min Rain = 0
KMD1 251505Z 15017KT 25/21 A3003 RMK A01 T02460211  RH  081%=      5-min Rain = 0
KMD1 251506Z 15013KT 25/21 A3003 RMK A01 T02470211  RH  081%=      5-min Rain = 0
KMD1 251507Z 14010KT 25/21 A3004 RMK A01 T02480214  RH  082%=      5-min Rain = 0
KMD1 251508Z 14008KT 25/22 A3004 RMK A01 T02480215  RH  081%=      5-min Rain = 0
KMD1 251509Z 13012KT 25/22 A3004 RMK A01 T02490216  RH  082%=      5-min Rain = 0
KMD1 251510Z 13011KT 25/21 A3004 RMK A01 T02490213  RH  081%=      5-min Rain = 0
KMD1 251511Z 14011KT 25/21 A3004 RMK A01 T02480213  RH  081%=      5-min Rain = 0
KMD1 251512Z 14010KT 25/21 A3004 RMK A01 T02480214  RH  081%=      5-min Rain = 0
KMD1 251513Z 15013KT 25/21 A3004 RMK A01 T02480212  RH  080%=      5-min Rain = 0
KMD1 251514Z 14015KT 25/21 A3004 RMK A01 T02480212  RH  080%=      5-min Rain = 0
KMD1 251515Z 14015KT 25/21 A3004 RMK A01 T02480211  RH  080%=      5-min Rain = 0
KMD1 251516Z 15014KT 25/21 A3004 RMK A01 T02480211  RH  080%=      5-min Rain = 0
KMD1 251517Z 15015KT 25/21 A3004 RMK A01 T02480212  RH  080%=      5-min Rain = 0
KMD1 251518Z 15014KT 25/21 A3004 RMK A01 T02480210  RH  079%=      5-min Rain = 0
KMD1 251519Z 14012KT 25/21 A3004 RMK A01 T02480211  RH  080%=      5-min Rain = 0
KMD1 251520Z 15010KT 25/21 A3004 RMK A01 T02480212  RH  080%=      5-min Rain = 0
KMD1 251521Z 14010KT 25/21 A3004 RMK A01 T02480213  RH  081%=      5-min Rain = 0
KMD1 251522Z 13010KT 25/21 A3004 RMK A01 T02480214  RH  081%=      5-min Rain = 0
KMD1 251523Z 14010KT 25/22 A3004 RMK A01 T02480215  RH  082%=      5-min Rain = 0
KMD1 251524Z 15007G13KT 25/21 A3004 RMK A01 T02480214  RH  082%=      5-min Rain = 0
KMD1 251525Z 15010KT 25/21 A3004 RMK A01 T02480213  RH  081%=      5-min Rain = 0
KMD1 251526Z 14007KT 25/21 A3004 RMK A01 T02490214  RH  081%=      5-min Rain = 0
KMD1 251527Z 14010KT 25/21 A3004 RMK A01 T02490214  RH  081%=      5-min Rain = 0
KMD1 251528Z 15009KT 25/21 A3004 RMK A01 T02490214  RH  081%=      5-min Rain = 0
KMD1 251529Z 14009KT 25/22 A3004 RMK A01 T02490215  RH  082%=      5-min Rain = 0
KMD1 251530Z 14008KT 25/21 A3004 RMK A01 T02490214  RH  081%=      5-min Rain = 0
KMD1 251531Z 13009KT 25/22 A3004 RMK A01 T02490218  RH  083%=      5-min Rain = 0
KMD1 251532Z 13012KT 25/22 A3004 RMK A01 T02500216  RH  082%=      5-min Rain = 0
KMD1 251533Z 14011KT 25/21 A3004 RMK A01 T02500214  RH  081%=      5-min Rain = 0
KMD1 251534Z 14009KT 25/22 A3004 RMK A01 T02490215  RH  081%=      5-min Rain = 0
KMD1 251535Z 14009G15KT 25/21 A3004 RMK A01 T02490214  RH  081%=      5-min Rain = 0
KMD1 251536Z 14011KT 25/21 A3004 RMK A01 T02500214  RH  081%=      5-min Rain = 0
KMD1 251537Z 14010KT 25/21 A3004 RMK A01 T02490213  RH  080%=      5-min Rain = 0
KMD1 251538Z 15009KT 25/22 A3004 RMK A01 T02490215  RH  081%=      5-min Rain = 0
KMD1 251539Z 13011KT 25/22 A3004 RMK A01 T02490215  RH  081%=      5-min Rain = 0
KMD1 251540Z 14012KT 25/21 A3004 RMK A01 T02490214  RH  081%=      5-min Rain = 0
KMD1 251541Z 13014KT 25/21 A3004 RMK A01 T02490213  RH  081%=      5-min Rain = 0
KMD1 251542Z 14011KT 25/21 A3004 RMK A01 T02480212  RH  081%=      5-min Rain = 0
KMD1 251543Z 14011KT 25/21 A3004 RMK A01 T02480213  RH  081%=      5-min Rain = 0
KMD1 251544Z 13012KT 25/21 A3004 RMK A01 T02480213  RH  081%=      5-min Rain = 0
KMD1 251545Z 13014KT 25/22 A3004 RMK A01 T02480215  RH  082%=      5-min Rain = 0
KMD1 251546Z 13013KT 25/21 A3004 RMK A01 T02470213  RH  081%=      5-min Rain = 0
KMD1 251547Z 14010KT 25/21 A3004 RMK A01 T02470214  RH  082%=      5-min Rain = 0
KMD1 251548Z 13011KT 25/22 A3004 RMK A01 T02470215  RH  083%=      5-min Rain = 0
KMD1 251549Z 14011G17KT 25/22 A3004 RMK A01 T02470216  RH  083%=      5-min Rain = 0
KMD1 251550Z 14014KT 25/21 A3004 RMK A01 T02470213  RH  081%=      5-min Rain = 0
KMD1 251551Z 14013KT 25/21 A3004 RMK A01 T02470213  RH  081%=      5-min Rain = 0
KMD1 251552Z 13013KT 25/21 A3004 RMK A01 T02470213  RH  081%=      5-min Rain = 0
KMD1 251553Z 14014KT 25/21 A3004 RMK A01 T02470213  RH  081%=      5-min Rain = 0
KMD1 251554Z 14012KT 25/21 A3004 RMK A01 T02470213  RH  081%=      5-min Rain = 0
KMD1 251555Z 14014KT 25/21 A3004 RMK A01 T02470212  RH  081%=      5-min Rain = 0
KMD1 251556Z 14012KT 25/21 A3004 RMK A01 T02470213  RH  081%=      5-min Rain = 0
KMD1 251557Z 14011KT 25/21 A3004 RMK A01 T02470213  RH  081%=      5-min Rain = 0
KMD1 251558Z 15010KT 25/21 A3004 RMK A01 T02480214  RH  081%=      5-min Rain = 0
KMD1 251559Z 15012KT 25/21 A3004 RMK A01 T02480213  RH  081%=      5-min Rain = 0
KMD1 251600Z 15011G16KT 25/21 A3004 RMK A01 T02480213  RH  081%=      5-min Rain = 0
KMD1 251601Z 15014KT 25/21 A3004 RMK A01 T02480213  RH  081%=      5-min Rain = 0
KMD1 251602Z 14012KT 25/21 A3004 RMK A01 T02480213  RH  081%=      5-min Rain = 0
KMD1 251603Z 15011KT 25/21 A3004 RMK A01 T02480214  RH  081%=      5-min Rain = 0
KMD1 251604Z 16011KT 25/21 A3004 RMK A01 T02490214  RH  081%=      5-min Rain = 0
KMD1 251605Z 15013KT 25/21 A3004 RMK A01 T02500213  RH  080%=      5-min Rain = 0
KMD1 251606Z 14012KT 25/21 A3004 RMK A01 T02510213  RH  080%=      5-min Rain = 0
KMD1 251607Z 15012KT 25/21 A3004 RMK A01 T02510214  RH  080%=      5-min Rain = 0
KMD1 251608Z 14011KT 25/22 A3004 RMK A01 T02520216  RH  081%=      5-min Rain = 0
KMD1 251609Z 14008KT 25/22 A3004 RMK A01 T02530217  RH  081%=      5-min Rain = 0
KMD1 251610Z 16007KT 25/22 A3004 RMK A01 T02530219  RH  081%=      5-min Rain = 0
KMD1 251611Z 14009KT 26/22 A3004 RMK A01 T02550219  RH  080%=      5-min Rain = 0
KMD1 251612Z 15013KT 26/22 A3004 RMK A01 T02560216  RH  078%=      5-min Rain = 0
KMD1 251613Z 16013KT 26/22 A3004 RMK A01 T02560215  RH  078%=      5-min Rain = 0
KMD1 251614Z 16013KT 26/21 A3004 RMK A01 T02560214  RH  078%=      5-min Rain = 0
KMD1 251615Z 15011KT 26/21 A3004 RMK A01 T02560214  RH  077%=      5-min Rain = 0
KMD1 251616Z 14011KT 26/22 A3004 RMK A01 T02570217  RH  078%=      5-min Rain = 0
KMD1 251617Z 15010KT 26/22 A3004 RMK A01 T02570217  RH  078%=      5-min Rain = 0
KMD1 251618Z 14013G18KT 26/22 A3004 RMK A01 T02590220  RH  079%=      5-min Rain = 0
KMD1 251619Z 16018KT 26/21 A3004 RMK A01 T02600214  RH  076%=      5-min Rain = 0
KMD1 251620Z 15014KT 26/22 A3004 RMK A01 T02600215  RH  076%=      5-min Rain = 0
KMD1 251621Z 16013KT 26/21 A3004 RMK A01 T02610214  RH  075%=      5-min Rain = 0
KMD1 251622Z 15014G19KT 26/22 A3004 RMK A01 T02610216  RH  076%=      5-min Rain = 0
KMD1 251623Z 15015KT 26/21 A3004 RMK A01 T02620214  RH  075%=      5-min Rain = 0
KMD1 251624Z 17011KT 26/22 A3004 RMK A01 T02620215  RH  075%=      5-min Rain = 0
KMD1 251625Z 15011KT 26/22 A3004 RMK A01 T02640219  RH  076%=      5-min Rain = 0
KMD1 251626Z 16014KT 27/22 A3004 RMK A01 T02660216  RH  074%=      5-min Rain = 0
KMD1 251627Z 17014KT 27/22 A3004 RMK A01 T02670215  RH  073%=      5-min Rain = 0
KMD1 251628Z 15015G20KT 27/22 A3004 RMK A01 T02680216  RH  073%=      5-min Rain = 0
KMD1 251629Z 17017KT 27/21 A3004 RMK A01 T02670214  RH  073%=      5-min Rain = 0
KMD1 251630Z 17017KT 27/21 A3004 RMK A01 T02660213  RH  073%=      5-min Rain = 0
KMD1 251631Z 16016KT 27/21 A3004 RMK A01 T02650212  RH  073%=      5-min Rain = 0
KMD1 251632Z 16017KT 27/21 A3004 RMK A01 T02650213  RH  073%=      5-min Rain = 0
KMD1 251633Z 16015G20KT 26/21 A3004 RMK A01 T02640213  RH  073%=      5-min Rain = 0
KMD1 251634Z 16015KT 27/21 A3004 RMK A01 T02650214  RH  074%=      5-min Rain = 0
KMD1 251635Z 16014KT 27/22 A3004 RMK A01 T02650215  RH  074%=      5-min Rain = 0
KMD1 251636Z 18013KT 27/21 A3004 RMK A01 T02670214  RH  073%=      5-min Rain = 0
KMD1 251637Z 17011G17KT 27/22 A3004 RMK A01 T02670215  RH  073%=      5-min Rain = 0
KMD1 251638Z 16009KT 27/22 A3004 RMK A01 T02680218  RH  074%=      5-min Rain = 0
KMD1 251639Z 16016KT 27/22 A3004 RMK A01 T02690215  RH  072%=      5-min Rain = 0
KMD1 251640Z 16015G20KT 27/22 A3004 RMK A01 T02690215  RH  072%=      5-min Rain = 0
KMD1 251641Z 16017KT 27/21 A3004 RMK A01 T02680211  RH  071%=      5-min Rain = 0
KMD1 251642Z 16018KT 27/21 A3004 RMK A01 T02660212  RH  072%=      5-min Rain = 0
KMD1 251643Z 16014KT 27/21 A3004 RMK A01 T02670214  RH  072%=      5-min Rain = 0
KMD1 251644Z 16014KT 27/21 A3004 RMK A01 T02680214  RH  072%=      5-min Rain = 0
KMD1 251645Z 16015KT 27/21 A3004 RMK A01 T02690214  RH  072%=      5-min Rain = 0
KMD1 251646Z 16012KT 27/21 A3004 RMK A01 T02680213  RH  072%=      5-min Rain = 0
KMD1 251647Z 17010KT 27/22 A3004 RMK A01 T02690218  RH  074%=      5-min Rain = 0
KMD1 251648Z 16013KT 27/22 A3004 RMK A01 T02730218  RH  072%=      5-min Rain = 0
KMD1 251649Z 17015KT 27/22 A3004 RMK A01 T02730216  RH  071%=      5-min Rain = 0
KMD1 251650Z 17015G20KT 27/22 A3004 RMK A01 T02740216  RH  071%=      5-min Rain = 0
KMD1 251651Z 17015KT 27/22 A3004 RMK A01 T02740216  RH  071%=      5-min Rain = 0
KMD1 251652Z 17017KT 27/21 A3004 RMK A01 T02740213  RH  069%=      5-min Rain = 0
KMD1 251653Z 16013G18KT 27/21 A3005 RMK A01 T02740214  RH  070%=      5-min Rain = 0
KMD1 251654Z 17014G19KT 27/22 A3005 RMK A01 T02730215  RH  070%=      5-min Rain = 0
KMD1 251655Z 17014KT 27/21 A3004 RMK A01 T02730214  RH  070%=      5-min Rain = 0
KMD1 251656Z 17016KT 27/21 A3005 RMK A01 T02710211  RH  070%=      5-min Rain = 0
KMD1 251657Z 17014KT 27/21 A3004 RMK A01 T02700214  RH  071%=      5-min Rain = 0
KMD1 251658Z 16015KT 27/21 A3004 RMK A01 T02690213  RH  071%=      5-min Rain = 0
KMD1 251659Z 15013KT 27/21 A3004 RMK A01 T02690212  RH  071%=      5-min Rain = 0
KMD1 251700Z 16015KT 27/21 A3004 RMK A01 T02690212  RH  071%=      5-min Rain = 0
KMD1 251701Z 15014G19KT 27/22 A3004 RMK A01 T02690215  RH  072%=      5-min Rain = 0
KMD1 251702Z 15014KT 27/22 A3004 RMK A01 T02700215  RH  072%=      5-min Rain = 0
KMD1 251703Z 16016KT 27/21 A3004 RMK A01 T02700212  RH  070%=      5-min Rain = 0
KMD1 251704Z 16012KT 27/21 A3004 RMK A01 T02690213  RH  071%=      5-min Rain = 0
KMD1 251705Z 16012G18KT 27/22 A3004 RMK A01 T02720216  RH  071%=      5-min Rain = 0
KMD1 251706Z 16016KT 28/22 A3004 RMK A01 T02750216  RH  070%=      5-min Rain = 0
KMD1 251707Z 16015KT 28/22 A3004 RMK A01 T02770215  RH  069%=      5-min Rain = 0
KMD1 251708Z 16012KT 28/22 A3004 RMK A01 T02790217  RH  069%=      5-min Rain = 0
KMD1 251709Z 16015KT 28/22 A3004 RMK A01 T02810216  RH  068%=      5-min Rain = 0
KMD1 251710Z 17013KT 28/22 A3004 RMK A01 T02810216  RH  068%=      5-min Rain = 0
KMD1 251711Z 17013G18KT 28/22 A3004 RMK A01 T02820220  RH  069%=      5-min Rain = 0
KMD1 251712Z 18016KT 28/21 A3004 RMK A01 T02840214  RH  066%=      5-min Rain = 0
KMD1 251713Z 17017G22KT 28/22 A3004 RMK A01 T02820215  RH  067%=      5-min Rain = 0
KMD1 251714Z 16018KT 28/21 A3004 RMK A01 T02810212  RH  066%=      5-min Rain = 0
KMD1 251715Z 15018KT 28/21 A3004 RMK A01 T02800213  RH  067%=      5-min Rain = 0
KMD1 251716Z 18017G22KT 28/21 A3004 RMK A01 T02780212  RH  067%=      5-min Rain = 0
KMD1 251717Z 18020KT 28/21 A3004 RMK A01 T02790210  RH  066%=      5-min Rain = 0
KMD1 251718Z 17018KT 28/21 A3004 RMK A01 T02790212  RH  067%=      5-min Rain = 0
KMD1 251719Z 16016G21KT 28/21 A3004 RMK A01 T02810210  RH  065%=      5-min Rain = 0
KMD1 251720Z 17016KT 28/21 A3004 RMK A01 T02790212  RH  067%=      5-min Rain = 0
KMD1 251721Z 17015G20KT 28/22 A3004 RMK A01 T02790215  RH  068%=      5-min Rain = 0
KMD1 251722Z 17015KT 28/22 A3004 RMK A01 T02810215  RH  067%=      5-min Rain = 0
KMD1 251723Z 17014G19KT 28/22 A3004 RMK A01 T02810215  RH  067%=      5-min Rain = 0
KMD1 251724Z 16014KT 28/21 A3004 RMK A01 T02790213  RH  067%=      5-min Rain = 0
KMD1 251725Z 14016G21KT 28/21 A3004 RMK A01 T02770213  RH  068%=      5-min Rain = 0
KMD1 251726Z 16012KT 28/21 A3004 RMK A01 T02750214  RH  069%=      5-min Rain = 0
KMD1 251727Z 15014G19KT 28/22 A3004 RMK A01 T02770215  RH  069%=      5-min Rain = 0
KMD1 251728Z 15022KT 28/21 A3003 RMK A01 T02790210  RH  066%=      5-min Rain = 0
KMD1 251729Z 15020G25KT 28/21 A3003 RMK A01 T02790211  RH  066%=      5-min Rain = 0
KMD1 251730Z 16017KT 28/21 A3003 RMK A01 T02790212  RH  067%=      5-min Rain = 0
KMD1 251731Z 17015G20KT 28/21 A3003 RMK A01 T02800210  RH  066%=      5-min Rain = 0
KMD1 251732Z 18015KT 28/21 A3003 RMK A01 T02810213  RH  066%=      5-min Rain = 0
KMD1 251733Z 18014KT 28/21 A3003 RMK A01 T02820211  RH  065%=      5-min Rain = 0
KMD1 251734Z 16016KT 28/21 A3003 RMK A01 T02830211  RH  065%=      5-min Rain = 0
KMD1 251735Z 15017G22KT 28/21 A3003 RMK A01 T02830211  RH  065%=      5-min Rain = 0
KMD1 251736Z 16013KT 28/21 A3003 RMK A01 T02820213  RH  066%=      5-min Rain = 0
KMD1 251737Z 17018KT 28/21 A3003 RMK A01 T02840211  RH  065%=      5-min Rain = 0
KMD1 251738Z 17019KT 29/21 A3002 RMK A01 T02850206  RH  062%=      5-min Rain = 0
KMD1 251739Z 17016G21KT 28/21 A3003 RMK A01 T02840211  RH  064%=      5-min Rain = 0
KMD1 251740Z 16017KT 29/21 A3003 RMK A01 T02850210  RH  064%=      5-min Rain = 0
KMD1 251741Z 16018KT 29/21 A3002 RMK A01 T02860209  RH  063%=      5-min Rain = 0
KMD1 251742Z 16019G26KT 29/21 A3002 RMK A01 T02870210  RH  063%=      5-min Rain = 0
KMD1 251743Z 17017KT 29/21 A3002 RMK A01 T02870208  RH  062%=      5-min Rain = 0
KMD1 251744Z 17016KT 29/21 A3002 RMK A01 T02880209  RH  062%=      5-min Rain = 0
KMD1 251745Z 17016G22KT 29/21 A3002 RMK A01 T02890213  RH  064%=      5-min Rain = 0
KMD1 251746Z 17015KT 29/21 A3002 RMK A01 T02900209  RH  062%=      5-min Rain = 0
KMD1 251747Z 18017KT 29/21 A3002 RMK A01 T02890211  RH  063%=      5-min Rain = 0
KMD1 251748Z 17019KT 29/21 A3002 RMK A01 T02890208  RH  062%=      5-min Rain = 0
KMD1 251749Z 16017KT 29/21 A3002 RMK A01 T02880210  RH  063%=      5-min Rain = 0
KMD1 251750Z 16018KT 29/21 A3002 RMK A01 T02880206  RH  061%=      5-min Rain = 0
KMD1 251751Z 16015KT 29/21 A3002 RMK A01 T02870210  RH  063%=      5-min Rain = 0
KMD1 251752Z 17015KT 29/21 A3002 RMK A01 T02870211  RH  064%=      5-min Rain = 0
KMD1 251753Z 17015KT 29/21 A3002 RMK A01 T02870210  RH  063%=      5-min Rain = 0
KMD1 251754Z 17016KT 29/21 A3002 RMK A01 T02870213  RH  064%=      5-min Rain = 0
KMD1 251755Z 16015G21KT 29/21 A3002 RMK A01 T02890208  RH  061%=      5-min Rain = 0
KMD1 251756Z 16015KT 29/21 A3002 RMK A01 T02880212  RH  063%=      5-min Rain = 0
KMD1 251757Z 16014KT 29/22 A3002 RMK A01 T02900216  RH  064%=      5-min Rain = 0
KMD1 251758Z 16019KT 29/21 A3002 RMK A01 T02920210  RH  061%=      5-min Rain = 0
KMD1 251759Z 17016KT 29/21 A3002 RMK A01 T02900209  RH  062%=      5-min Rain = 0
KMD1 251800Z 16015KT 29/21 A3002 RMK A01 T02890212  RH  063%=      5-min Rain = 0
KMD1 251801Z 17015KT 29/21 A3002 RMK A01 T02890211  RH  063%=      5-min Rain = 0
KMD1 251802Z 17015KT 29/21 A3002 RMK A01 T02890212  RH  063%=      5-min Rain = 0
KMD1 251803Z 17015KT 29/22 A3002 RMK A01 T02900217  RH  065%=      5-min Rain = 0
KMD1 251804Z 17016KT 29/21 A3002 RMK A01 T02920210  RH  061%=      5-min Rain = 0
KMD1 251805Z 16016KT 29/21 A3002 RMK A01 T02910212  RH  063%=      5-min Rain = 0
KMD1 251806Z 14012G19KT 29/21 A3002 RMK A01 T02900214  RH  063%=      5-min Rain = 0
KMD1 251807Z 14015KT 29/22 A3002 RMK A01 T02890215  RH  064%=      5-min Rain = 0
KMD1 251808Z 16018KT 29/21 A3002 RMK A01 T02870214  RH  065%=      5-min Rain = 0
KMD1 251809Z 15016KT 29/21 A3002 RMK A01 T02880211  RH  063%=      5-min Rain = 0
KMD1 251810Z 16015KT 29/21 A3001 RMK A01 T02890213  RH  063%=      5-min Rain = 0
KMD1 251811Z 17015G21KT 29/21 A3001 RMK A01 T02910214  RH  063%=      5-min Rain = 0
KMD1 251812Z 17018G26KT 29/21 A3001 RMK A01 T02920211  RH  061%=      5-min Rain = 0
KMD1 251813Z 16021KT 29/21 A3001 RMK A01 T02930210  RH  061%=      5-min Rain = 0
KMD1 251814Z 17019KT 29/21 A3001 RMK A01 T02930208  RH  060%=      5-min Rain = 0
KMD1 251815Z 16017KT 29/21 A3001 RMK A01 T02920209  RH  061%=      5-min Rain = 0
KMD1 251816Z 17016G21KT 29/21 A3001 RMK A01 T02920209  RH  061%=      5-min Rain = 0
KMD1 251817Z 17021KT 29/21 A3001 RMK A01 T02920208  RH  061%=      5-min Rain = 0
KMD1 251818Z 17019KT 29/21 A3001 RMK A01 T02920207  RH  060%=      5-min Rain = 0
KMD1 251819Z 17016KT 29/21 A3001 RMK A01 T02920207  RH  060%=      5-min Rain = 0
KMD1 251820Z 16019KT 29/21 A3001 RMK A01 T02930208  RH  060%=      5-min Rain = 0
KMD1 251821Z 17015KT 29/21 A3001 RMK A01 T02940205  RH  059%=      5-min Rain = 0
KMD1 251822Z 17013KT 29/21 A3001 RMK A01 T02940210  RH  061%=      5-min Rain = 0
KMD1 251823Z 18016G22KT 29/21 A3001 RMK A01 T02930206  RH  060%=      5-min Rain = 0
KMD1 251824Z 17020KT 29/21 A3001 RMK A01 T02920207  RH  060%=      5-min Rain = 0
KMD1 251825Z 17021KT 29/20 A3001 RMK A01 T02920203  RH  059%=      5-min Rain = 0
KMD1 251826Z 16017KT 29/20 A3001 RMK A01 T02920202  RH  058%=      5-min Rain = 0
KMD1 251827Z 16017KT 29/20 A3001 RMK A01 T02930204  RH  059%=      5-min Rain = 0
KMD1 251828Z 17015G21KT 29/21 A3001 RMK A01 T02930208  RH  060%=      5-min Rain = 0
KMD1 251829Z 18016KT 29/21 A3001 RMK A01 T02930209  RH  061%=      5-min Rain = 0
KMD1 251830Z 16012KT 29/21 A3001 RMK A01 T02930209  RH  061%=      5-min Rain = 0
KMD1 251831Z 16013G18KT 29/21 A3001 RMK A01 T02930214  RH  062%=      5-min Rain = 0
KMD1 251832Z 16017KT 29/21 A3001 RMK A01 T02930208  RH  060%=      5-min Rain = 0
KMD1 251833Z 15016G23KT 29/21 A3001 RMK A01 T02920206  RH  060%=      5-min Rain = 0
KMD1 251834Z 15014KT 29/21 A3001 RMK A01 T02920208  RH  061%=      5-min Rain = 0
KMD1 251835Z 15016KT 29/21 A3001 RMK A01 T02910207  RH  061%=      5-min Rain = 0
KMD1 251836Z 15021KT 29/20 A3001 RMK A01 T02910204  RH  059%=      5-min Rain = 0
KMD1 251837Z 15020KT 29/21 A3001 RMK A01 T02900205  RH  060%=      5-min Rain = 0
KMD1 251838Z 15018KT 29/20 A3001 RMK A01 T02900204  RH  060%=      5-min Rain = 0
KMD1 251839Z 15015G20KT 29/20 A3001 RMK A01 T02910203  RH  059%=      5-min Rain = 0
KMD1 251840Z 15017KT 29/21 A30 RMK A01 T02900206  RH  061%=      5-min Rain = 0
KMD1 251841Z 14016G21KT 29/21 A30 RMK A01 T02890205  RH  060%=      5-min Rain = 0
KMD1 251842Z 16018G24KT 29/21 A30 RMK A01 T02890205  RH  060%=      5-min Rain = 0
KMD1 251843Z 16018KT 29/20 A30 RMK A01 T02890203  RH  060%=      5-min Rain = 0
KMD1 251844Z 15014G19KT 29/21 A30 RMK A01 T02880206  RH  061%=      5-min Rain = 0
KMD1 251845Z 16015KT 29/21 A30 RMK A01 T02900209  RH  061%=      5-min Rain = 0
KMD1 251846Z 15018KT 29/21 A30 RMK A01 T02940211  RH  061%=      5-min Rain = 0
KMD1 251847Z 16016G21KT 30/21 A30 RMK A01 T02960208  RH  059%=      5-min Rain = 0
KMD1 251848Z 15018KT 30/21 A30 RMK A01 T02970207  RH  058%=      5-min Rain = 0
KMD1 251849Z 16015KT 29/21 A30 RMK A01 T02940206  RH  059%=      5-min Rain = 0
KMD1 251850Z 16016KT 29/21 A30 RMK A01 T02920205  RH  060%=      5-min Rain = 0
KMD1 251851Z 16016KT 29/21 A30 RMK A01 T02900206  RH  060%=      5-min Rain = 0
KMD1 251852Z 16016KT 29/20 A30 RMK A01 T02890204  RH  060%=      5-min Rain = 0
KMD1 251853Z 17014KT 29/21 A30 RMK A01 T02880206  RH  061%=      5-min Rain = 0
KMD1 251854Z 16015KT 29/21 A30 RMK A01 T02890208  RH  062%=      5-min Rain = 0
KMD1 251855Z 16013KT 29/21 A30 RMK A01 T02920209  RH  061%=      5-min Rain = 0
KMD1 251856Z 16014KT 30/21 A30 RMK A01 T02950208  RH  060%=      5-min Rain = 0
KMD1 251857Z 15014KT 30/21 A30 RMK A01 T02950211  RH  061%=      5-min Rain = 0
KMD1 251858Z 15014KT 29/21 A30 RMK A01 T02940211  RH  061%=      5-min Rain = 0
KMD1 251859Z 15017KT 29/21 A30 RMK A01 T02940209  RH  060%=      5-min Rain = 0
KMD1 251900Z 15016KT 30/21 A30 RMK A01 T02950208  RH  060%=      5-min Rain = 0
KMD1 251901Z 15017KT 30/21 A30 RMK A01 T02960209  RH  060%=      5-min Rain = 0
KMD1 251902Z 15016KT 29/21 A30 RMK A01 T02940207  RH  059%=      5-min Rain = 0
KMD1 251903Z 16013G18KT 29/21 A30 RMK A01 T02940210  RH  061%=      5-min Rain = 0
KMD1 251904Z 18016G21KT 30/21 A30 RMK A01 T02960207  RH  059%=      5-min Rain = 0
KMD1 251905Z 18016KT 30/20 A30 RMK A01 T02960204  RH  058%=      5-min Rain = 0
KMD1 251906Z 18018KT 29/20 A30 RMK A01 T02940203  RH  058%=      5-min Rain = 0
KMD1 251907Z 16016KT 30/21 A30 RMK A01 T02960205  RH  058%=      5-min Rain = 0
KMD1 251908Z 16016G23KT 30/21 A30 RMK A01 T02970206  RH  058%=      5-min Rain = 0
KMD1 251909Z 17019G25KT 30/20 A30 RMK A01 T02980203  RH  057%=      5-min Rain = 0
KMD1 251910Z 17019KT 30/20 A30 RMK A01 T02950201  RH  057%=      5-min Rain = 0
KMD1 251911Z 16020KT 29/20 A30 RMK A01 T02910200  RH  058%=      5-min Rain = 0
KMD1 251912Z 16017KT 29/20 A30 RMK A01 T02890201  RH  059%=      5-min Rain = 0
KMD1 251913Z 16017KT 29/20 A30 RMK A01 T02900201  RH  059%=      5-min Rain = 0
KMD1 251914Z 16015KT 29/20 A30 RMK A01 T02940204  RH  058%=      5-min Rain = 0
KMD1 251915Z 16012KT 30/21 A30 RMK A01 T02970207  RH  059%=      5-min Rain = 0
KMD1 251916Z 16015KT 30/21 A30 RMK A01 T02970207  RH  058%=      5-min Rain = 0
KMD1 251917Z 15009G15KT 30/21 A30 RMK A01 T02970212  RH  060%=      5-min Rain = 0
KMD1 251918Z 15011G17KT 30/21 A30 RMK A01 T02970214  RH  061%=      5-min Rain = 0
KMD1 251919Z 15013G18KT 30/22 A30 RMK A01 T02990217  RH  062%=      5-min Rain = 0
KMD1 251920Z 14016KT 30/21 A2999 RMK A01 T03000211  RH  059%=      5-min Rain = 0
KMD1 251921Z 15016KT 30/21 A2999 RMK A01 T02990207  RH  058%=      5-min Rain = 0
KMD1 251922Z 15015KT 30/21 A2999 RMK A01 T02960206  RH  058%=      5-min Rain = 0
KMD1 251923Z 15014G20KT 29/21 A2999 RMK A01 T02930205  RH  059%=      5-min Rain = 0
KMD1 251924Z 16015KT 29/21 A2999 RMK A01 T02930207  RH  060%=      5-min Rain = 0
KMD1 251925Z 17016KT 29/21 A2999 RMK A01 T02940205  RH  059%=      5-min Rain = 0
KMD1 251926Z 16013KT 29/20 A2999 RMK A01 T02940204  RH  058%=      5-min Rain = 0
KMD1 251927Z 15012KT 29/20 A2999 RMK A01 T02920204  RH  059%=      5-min Rain = 0
KMD1 251928Z 16012KT 29/21 A2999 RMK A01 T02900207  RH  061%=      5-min Rain = 0
KMD1 251929Z 16011KT 29/21 A2999 RMK A01 T02900208  RH  061%=      5-min Rain = 0
KMD1 251930Z 15015G20KT 29/21 A2999 RMK A01 T02900206  RH  061%=      5-min Rain = 0
KMD1 251931Z 15014G19KT 29/21 A2999 RMK A01 T02900207  RH  061%=      5-min Rain = 0
KMD1 251932Z 16015G21KT 29/20 A2999 RMK A01 T02920204  RH  059%=      5-min Rain = 0
KMD1 251933Z 16016G21KT 29/20 A2999 RMK A01 T02940203  RH  058%=      5-min Rain = 0
KMD1 251934Z 14014G21KT 30/21 A2999 RMK A01 T02960205  RH  058%=      5-min Rain = 0
KMD1 251935Z 15017KT 30/20 A2999 RMK A01 T02980204  RH  057%=      5-min Rain = 0
KMD1 251936Z 15020G25KT 30/21 A2999 RMK A01 T02970205  RH  058%=      5-min Rain = 0
KMD1 251937Z 16017KT 30/21 A2999 RMK A01 T02960205  RH  058%=      5-min Rain = 0
KMD1 251938Z 15013KT 30/21 A2999 RMK A01 T02970208  RH  059%=      5-min Rain = 0
KMD1 251939Z 15017G23KT 30/21 A2999 RMK A01 T02990207  RH  058%=      5-min Rain = 0
KMD1 251940Z 16016G21KT 30/20 A2999 RMK A01 T02970204  RH  058%=      5-min Rain = 0
KMD1 251941Z 17018KT 30/20 A2999 RMK A01 T02950201  RH  057%=      5-min Rain = 0
KMD1 251942Z 15018KT 29/20 A2999 RMK A01 T02930200  RH  057%=      5-min Rain = 0
KMD1 251943Z 15018KT 29/20 A2998 RMK A01 T02910199  RH  058%=      5-min Rain = 0
KMD1 251944Z 16020KT 29/20 A2999 RMK A01 T02900201  RH  059%=      5-min Rain = 0
KMD1 251945Z 17016KT 29/20 A2999 RMK A01 T02940202  RH  058%=      5-min Rain = 0
KMD1 251946Z 17013KT 30/21 A2999 RMK A01 T02980208  RH  058%=      5-min Rain = 0
KMD1 251947Z 16015G21KT 30/21 A2998 RMK A01 T03010207  RH  057%=      5-min Rain = 0
KMD1 251948Z 15016G21KT 30/20 A2998 RMK A01 T03010203  RH  056%=      5-min Rain = 0
KMD1 251949Z 15014G20KT 30/21 A2998 RMK A01 T02970205  RH  058%=      5-min Rain = 0
KMD1 251950Z 17016KT 29/20 A2998 RMK A01 T02940201  RH  057%=      5-min Rain = 0
KMD1 251951Z 17018KT 29/20 A2998 RMK A01 T02920200  RH  058%=      5-min Rain = 0
KMD1 251952Z 17015KT 29/20 A2998 RMK A01 T02920203  RH  059%=      5-min Rain = 0
KMD1 251953Z 18016KT 29/20 A2998 RMK A01 T02920202  RH  059%=      5-min Rain = 0
KMD1 251954Z 17017KT 29/20 A2998 RMK A01 T02900202  RH  059%=      5-min Rain = 0
KMD1 251955Z 17014KT 29/20 A2998 RMK A01 T02890203  RH  060%=      5-min Rain = 0
KMD1 251956Z 16016KT 29/20 A2998 RMK A01 T02880201  RH  059%=      5-min Rain = 0
KMD1 251957Z 16017G22KT 29/20 A2998 RMK A01 T02880198  RH  058%=      5-min Rain = 0
KMD1 251958Z 16014KT 29/20 A2998 RMK A01 T02880201  RH  059%=      5-min Rain = 0
KMD1 251959Z 16014KT 29/20 A2998 RMK A01 T02880203  RH  060%=      5-min Rain = 0
KMD1 252000Z 17015KT 29/20 A2998 RMK A01 T02890204  RH  060%=      5-min Rain = 0
KMD1 252001Z 17017G22KT 29/20 A2998 RMK A01 T02910202  RH  059%=      5-min Rain = 0
KMD1 252002Z 17014KT 29/21 A2998 RMK A01 T02910205  RH  060%=      5-min Rain = 0
KMD1 252003Z 16014KT 29/20 A2998 RMK A01 T02910203  RH  059%=      5-min Rain = 0
KMD1 252004Z 18011KT 29/21 A2998 RMK A01 T02910207  RH  060%=      5-min Rain = 0
KMD1 252005Z 17014KT 29/21 A2997 RMK A01 T02940206  RH  059%=      5-min Rain = 0
KMD1 252006Z 18011KT 29/21 A2997 RMK A01 T02940208  RH  060%=      5-min Rain = 0
KMD1 252007Z 18012KT 30/21 A2997 RMK A01 T02950210  RH  060%=      5-min Rain = 0
KMD1 252008Z 17014G20KT 30/21 A2997 RMK A01 T02960208  RH  059%=      5-min Rain = 0
KMD1 252009Z 16014KT 30/20 A2997 RMK A01 T02960204  RH  058%=      5-min Rain = 0
KMD1 252010Z 16013KT 30/21 A2997 RMK A01 T02960208  RH  059%=      5-min Rain = 0
KMD1 252011Z 15015G20KT 30/21 A2997 RMK A01 T02990209  RH  058%=      5-min Rain = 0
KMD1 252012Z 17017KT 30/21 A2997 RMK A01 T03010206  RH  057%=      5-min Rain = 0
KMD1 252013Z 17016KT 30/20 A2997 RMK A01 T03010203  RH  056%=      5-min Rain = 0
KMD1 252014Z 16019KT 30/20 A2997 RMK A01 T02990202  RH  056%=      5-min Rain = 0
KMD1 252015Z 15019G24KT 30/20 A2997 RMK A01 T02960201  RH  057%=      5-min Rain = 0
KMD1 252016Z 15015KT 29/20 A2996 RMK A01 T02930200  RH  057%=      5-min Rain = 0
KMD1 252017Z 17012KT 29/20 A2997 RMK A01 T02930203  RH  059%=      5-min Rain = 0
KMD1 252018Z 17010G15KT 29/21 A2997 RMK A01 T02930209  RH  060%=      5-min Rain = 0
KMD1 252019Z 17013KT 30/21 A2997 RMK A01 T02970208  RH  059%=      5-min Rain = 0
KMD1 252020Z 16017G23KT 30/20 A2996 RMK A01 T03010204  RH  056%=      5-min Rain = 0
KMD1 252021Z 16016KT 30/20 A2996 RMK A01 T03030203  RH  055%=      5-min Rain = 0
KMD1 252022Z 16017KT 30/20 A2996 RMK A01 T03040202  RH  054%=      5-min Rain = 0
KMD1 252023Z 17014KT 30/20 A2996 RMK A01 T03040202  RH  054%=      5-min Rain = 0
KMD1 252024Z 17015KT 30/21 A2996 RMK A01 T03040207  RH  056%=      5-min Rain = 0
KMD1 252025Z 17017KT 31/20 A2996 RMK A01 T03060201  RH  054%=      5-min Rain = 0
KMD1 252026Z 17015KT 31/20 A2996 RMK A01 T03060201  RH  054%=      5-min Rain = 0
KMD1 252027Z 17016G22KT 31/20 A2996 RMK A01 T03050202  RH  054%=      5-min Rain = 0
KMD1 252028Z 18016G21KT 31/21 A2996 RMK A01 T03050205  RH  055%=      5-min Rain = 0
KMD1 252029Z 17017KT 31/20 A2996 RMK A01 T03050202  RH  054%=      5-min Rain = 0
KMD1 252030Z 17016KT 30/20 A2996 RMK A01 T03030199  RH  054%=      5-min Rain = 0
KMD1 252031Z 16015G21KT 30/20 A2996 RMK A01 T03020200  RH  055%=      5-min Rain = 0
KMD1 252032Z 17011G16KT 30/20 A2996 RMK A01 T03020204  RH  056%=      5-min Rain = 0
KMD1 252033Z 17011KT 30/20 A2996 RMK A01 T03020204  RH  056%=      5-min Rain = 0
KMD1 252034Z 17013G19KT 30/20 A2996 RMK A01 T03010204  RH  056%=      5-min Rain = 0
KMD1 252035Z 16013KT 30/20 A2996 RMK A01 T02990201  RH  056%=      5-min Rain = 0
KMD1 252036Z 16012KT 30/21 A2996 RMK A01 T02980206  RH  058%=      5-min Rain = 0
KMD1 252037Z 18012KT 30/21 A2996 RMK A01 T03000208  RH  058%=      5-min Rain = 0
KMD1 252038Z 17011KT 30/21 A2996 RMK A01 T03020208  RH  057%=      5-min Rain = 0
KMD1 252039Z 16013KT 31/21 A2996 RMK A01 T03050208  RH  056%=      5-min Rain = 0
KMD1 252040Z 16014G19KT 31/20 A2996 RMK A01 T03060204  RH  055%=      5-min Rain = 0
KMD1 252041Z 15014G21KT 31/21 A2996 RMK A01 T03060207  RH  055%=      5-min Rain = 0
KMD1 252042Z 17015G22KT 31/21 A2996 RMK A01 T03060205  RH  055%=      5-min Rain = 0
KMD1 252043Z 17017G22KT 31/20 A2996 RMK A01 T03050199  RH  053%=      5-min Rain = 0
KMD1 252044Z 15016KT 30/20 A2996 RMK A01 T03040201  RH  054%=      5-min Rain = 0
KMD1 252045Z 16015G24KT 30/20 A2996 RMK A01 T03030199  RH  054%=      5-min Rain = 0
KMD1 252046Z 16021KT 30/20 A2996 RMK A01 T03010197  RH  054%=      5-min Rain = 0
KMD1 252047Z 17015KT 30/20 A2996 RMK A01 T02980199  RH  055%=      5-min Rain = 0
KMD1 252048Z 17012KT 30/20 A2996 RMK A01 T02960202  RH  057%=      5-min Rain = 0
KMD1 252049Z 16012KT 30/20 A2996 RMK A01 T02960202  RH  057%=      5-min Rain = 0
KMD1 252050Z 16010KT 30/21 A2996 RMK A01 T02970205  RH  058%=      5-min Rain = 0
KMD1 252051Z 16010KT 30/21 A2996 RMK A01 T02980206  RH  058%=      5-min Rain = 0
KMD1 252052Z 16012KT 30/21 A2996 RMK A01 T02980206  RH  058%=      5-min Rain = 0
KMD1 252053Z 14009KT 30/21 A2996 RMK A01 T02980209  RH  059%=      5-min Rain = 0
KMD1 252054Z 15014G22KT 30/21 A2996 RMK A01 T02970207  RH  059%=      5-min Rain = 0
KMD1 252055Z 15015KT 30/21 A2996 RMK A01 T02960205  RH  058%=      5-min Rain = 0
KMD1 252056Z 16018G26KT 30/20 A2996 RMK A01 T02950203  RH  058%=      5-min Rain = 0
KMD1 252057Z 17020KT 30/19 A2996 RMK A01 T02960192  RH  054%=      5-min Rain = 0
KMD1 252058Z 16018KT 30/20 A2996 RMK A01 T02980198  RH  055%=      5-min Rain = 0
KMD1 252059Z 17019KT 30/20 A2996 RMK A01 T02980195  RH  054%=      5-min Rain = 0
KMD1 252100Z 17020G25KT 30/19 A2996 RMK A01 T02980194  RH  054%=      5-min Rain = 0
KMD1 252101Z 15018G25KT 30/19 A2996 RMK A01 T02970193  RH  054%=      5-min Rain = 0
KMD1 252102Z 16016KT 30/20 A2996 RMK A01 T02970196  RH  054%=      5-min Rain = 0
KMD1 252103Z 17013KT 30/19 A2996 RMK A01 T02990194  RH  053%=      5-min Rain = 0
KMD1 252104Z 18014KT 30/20 A2996 RMK A01 T03010197  RH  054%=      5-min Rain = 0
KMD1 252105Z 19017KT 30/20 A2996 RMK A01 T03000197  RH  054%=      5-min Rain = 0
KMD1 252106Z 18013KT 30/20 A2996 RMK A01 T02990200  RH  055%=      5-min Rain = 0
KMD1 252107Z 18016KT 30/20 A2996 RMK A01 T02990198  RH  055%=      5-min Rain = 0
KMD1 252108Z 18012KT 30/20 A2996 RMK A01 T02990200  RH  055%=      5-min Rain = 0
KMD1 252109Z 18014KT 30/20 A2996 RMK A01 T03000200  RH  055%=      5-min Rain = 0
KMD1 252110Z 17012KT 30/20 A2996 RMK A01 T03000203  RH  056%=      5-min Rain = 0
KMD1 252111Z 16010KT 30/21 A2996 RMK A01 T03000205  RH  057%=      5-min Rain = 0
KMD1 252112Z 14012KT 30/21 A2996 RMK A01 T03020209  RH  058%=      5-min Rain = 0
KMD1 252113Z 15011KT 30/21 A2996 RMK A01 T03030208  RH  057%=      5-min Rain = 0
KMD1 252114Z 15012G17KT 31/21 A2996 RMK A01 T03070210  RH  056%=      5-min Rain = 0
KMD1 252115Z 15017KT 31/20 A2996 RMK A01 T03070203  RH  054%=      5-min Rain = 0
KMD1 252116Z 14013KT 30/21 A2996 RMK A01 T03040207  RH  056%=      5-min Rain = 0
KMD1 252117Z 15016G23KT 30/21 A2996 RMK A01 T03010206  RH  057%=      5-min Rain = 0
KMD1 252118Z 15017KT 30/20 A2996 RMK A01 T02980199  RH  055%=      5-min Rain = 0
KMD1 252119Z 15014KT 30/20 A2996 RMK A01 T02950199  RH  056%=      5-min Rain = 0
KMD1 252120Z 16014G19KT 30/21 A2996 RMK A01 T02960205  RH  058%=      5-min Rain = 0
KMD1 252121Z 17018KT 30/20 A2996 RMK A01 T02980201  RH  056%=      5-min Rain = 0
KMD1 252122Z 16017G23KT 30/20 A2996 RMK A01 T03010204  RH  056%=      5-min Rain = 0
KMD1 252123Z 17014G19KT 30/21 A2996 RMK A01 T03040207  RH  056%=      5-min Rain = 0
KMD1 252124Z 16017G22KT 31/21 A2996 RMK A01 T03060205  RH  055%=      5-min Rain = 0
KMD1 252125Z 16018KT 30/20 A2996 RMK A01 T03040202  RH  054%=      5-min Rain = 0
KMD1 252126Z 17013KT 30/20 A2996 RMK A01 T03020203  RH  055%=      5-min Rain = 0
KMD1 252127Z 17013KT 30/20 A2996 RMK A01 T03010204  RH  056%=      5-min Rain = 0
KMD1 252128Z 18015G20KT 30/20 A2996 RMK A01 T03020199  RH  054%=      5-min Rain = 0
KMD1 252129Z 18014KT 30/20 A2996 RMK A01 T03030197  RH  053%=      5-min Rain = 0
KMD1 252130Z 16011KT 30/21 A2996 RMK A01 T03020205  RH  056%=      5-min Rain = 0
KMD1 252131Z 14012KT 30/21 A2996 RMK A01 T03040212  RH  058%=      5-min Rain = 0
KMD1 252132Z 16013KT 31/21 A2996 RMK A01 T03050211  RH  057%=      5-min Rain = 0
KMD1 252133Z 14014KT 31/21 A2996 RMK A01 T03050214  RH  058%=      5-min Rain = 0
KMD1 252134Z 15015KT 30/21 A2996 RMK A01 T03030207  RH  057%=      5-min Rain = 0
KMD1 252135Z 14014KT 30/21 A2996 RMK A01 T03010209  RH  058%=      5-min Rain = 0
KMD1 252136Z 16012KT 30/21 A2995 RMK A01 T02990209  RH  059%=      5-min Rain = 0
KMD1 252137Z 16012KT 30/21 A2995 RMK A01 T02970207  RH  058%=      5-min Rain = 0
KMD1 252138Z 15010KT 30/21 A2995 RMK A01 T02970209  RH  059%=      5-min Rain = 0
KMD1 252139Z 14011G17KT 30/21 A2995 RMK A01 T02970212  RH  060%=      5-min Rain = 0
KMD1 252140Z 15015KT 30/20 A2995 RMK A01 T02950203  RH  058%=      5-min Rain = 0
KMD1 252141Z 16012KT 29/20 A2995 RMK A01 T02940202  RH  058%=      5-min Rain = 0
KMD1 252142Z 17012G19KT 29/20 A2995 RMK A01 T02940203  RH  058%=      5-min Rain = 0
KMD1 252143Z 16016KT 29/20 A2995 RMK A01 T02940202  RH  058%=      5-min Rain = 0
KMD1 252144Z 17018KT 29/20 A2995 RMK A01 T02920198  RH  057%=      5-min Rain = 0
KMD1 252145Z 16014KT 29/20 A2995 RMK A01 T02920198  RH  057%=      5-min Rain = 0
KMD1 252146Z 16014KT 29/20 A2995 RMK A01 T02920201  RH  058%=      5-min Rain = 0
KMD1 252147Z 16017KT 29/20 A2995 RMK A01 T02920199  RH  057%=      5-min Rain = 0
KMD1 252148Z 16017KT 29/20 A2995 RMK A01 T02940196  RH  056%=      5-min Rain = 0
KMD1 252149Z 15015KT 30/20 A2996 RMK A01 T02950198  RH  056%=      5-min Rain = 0
KMD1 252150Z 15016KT 29/20 A2995 RMK A01 T02940198  RH  056%=      5-min Rain = 0
KMD1 252151Z 15014G19KT 29/20 A2995 RMK A01 T02940200  RH  057%=      5-min Rain = 0
KMD1 252152Z 15013KT 30/20 A2995 RMK A01 T02960201  RH  057%=      5-min Rain = 0
KMD1 252153Z 15012G17KT 30/20 A2995 RMK A01 T02990203  RH  056%=      5-min Rain = 0
KMD1 252154Z 13014KT 30/20 A2995 RMK A01 T03000204  RH  056%=      5-min Rain = 0
KMD1 252155Z 14017KT 30/20 A2995 RMK A01 T03000204  RH  056%=      5-min Rain = 0
KMD1 252156Z 14016KT 30/20 A2995 RMK A01 T02980203  RH  057%=      5-min Rain = 0
KMD1 252157Z 15017KT 30/20 A2995 RMK A01 T02980201  RH  056%=      5-min Rain = 0
KMD1 252158Z 15013KT 30/20 A2995 RMK A01 T02980201  RH  056%=      5-min Rain = 0
KMD1 252159Z 15015KT 30/20 A2995 RMK A01 T02970201  RH  056%=      5-min Rain = 0
KMD1 252200Z 16014G20KT 30/20 A2995 RMK A01 T02970198  RH  055%=      5-min Rain = 0
KMD1 252201Z 17017KT 30/20 A2995 RMK A01 T02970197  RH  055%=      5-min Rain = 0
KMD1 252202Z 16014KT 30/20 A2995 RMK A01 T02950196  RH  055%=      5-min Rain = 0
KMD1 252203Z 15018KT 29/19 A2995 RMK A01 T02940194  RH  055%=      5-min Rain = 0
KMD1 252204Z 15015KT 29/20 A2995 RMK A01 T02940195  RH  055%=      5-min Rain = 0
KMD1 252205Z 17011KT 30/20 A2995 RMK A01 T02960200  RH  056%=      5-min Rain = 0
KMD1 252206Z 17011KT 30/20 A2995 RMK A01 T02980200  RH  056%=      5-min Rain = 0
KMD1 252207Z 15015KT 30/20 A2995 RMK A01 T03000202  RH  056%=      5-min Rain = 0
KMD1 252208Z 16012KT 30/20 A2995 RMK A01 T03000198  RH  054%=      5-min Rain = 0
KMD1 252209Z 16013KT 30/20 A2995 RMK A01 T03010198  RH  054%=      5-min Rain = 0
KMD1 252210Z 16014KT 30/20 A2995 RMK A01 T03010197  RH  054%=      5-min Rain = 0
KMD1 252211Z 16014KT 30/20 A2995 RMK A01 T03020198  RH  054%=      5-min Rain = 0
KMD1 252212Z 16012KT 30/20 A2995 RMK A01 T03020200  RH  054%=      5-min Rain = 0
KMD1 252213Z 15013G20KT 30/20 A2996 RMK A01 T03030201  RH  055%=      5-min Rain = 0
KMD1 252214Z 15019KT 30/20 A2996 RMK A01 T03030197  RH  053%=      5-min Rain = 0
KMD1 252215Z 15019KT 30/19 A2995 RMK A01 T03010194  RH  053%=      5-min Rain = 0
KMD1 252216Z 16018KT 30/19 A2996 RMK A01 T02980194  RH  054%=      5-min Rain = 0
KMD1 252217Z 16017KT 30/19 A2995 RMK A01 T02970194  RH  054%=      5-min Rain = 0
KMD1 252218Z 17014G19KT 30/20 A2995 RMK A01 T02970197  RH  055%=      5-min Rain = 0
KMD1 252219Z 16012KT 30/20 A2995 RMK A01 T02980199  RH  055%=      5-min Rain = 0
KMD1 252220Z 16017KT 30/19 A2995 RMK A01 T02980194  RH  054%=      5-min Rain = 0
KMD1 252221Z 17017G24KT 30/19 A2995 RMK A01 T02980193  RH  053%=      5-min Rain = 0
KMD1 252222Z 15016G21KT 30/19 A2995 RMK A01 T02980192  RH  053%=      5-min Rain = 0
KMD1 252223Z 16017KT 30/20 A2995 RMK A01 T02980195  RH  054%=      5-min Rain = 0
KMD1 252224Z 16015KT 30/19 A2995 RMK A01 T02990193  RH  053%=      5-min Rain = 0
KMD1 252225Z 17018KT 30/19 A2995 RMK A01 T02990191  RH  052%=      5-min Rain = 0
KMD1 252226Z 16017KT 30/19 A2995 RMK A01 T02990191  RH  052%=      5-min Rain = 0
KMD1 252227Z 17018KT 30/19 A2994 RMK A01 T02990192  RH  053%=      5-min Rain = 0
KMD1 252228Z 17015G20KT 30/19 A2994 RMK A01 T02980191  RH  053%=      5-min Rain = 0
KMD1 252229Z 16012KT 30/19 A2994 RMK A01 T02980193  RH  053%=      5-min Rain = 0
KMD1 252230Z 16014KT 30/19 A2994 RMK A01 T02980193  RH  053%=      5-min Rain = 0
KMD1 252231Z 16011KT 30/20 A2994 RMK A01 T02990196  RH  054%=      5-min Rain = 0
KMD1 252232Z 16012KT 30/20 A2994 RMK A01 T03000197  RH  054%=      5-min Rain = 0
KMD1 252233Z 17013KT 30/20 A2994 RMK A01 T03020198  RH  054%=      5-min Rain = 0
KMD1 252234Z 16015KT 30/20 A2994 RMK A01 T03020195  RH  053%=      5-min Rain = 0
KMD1 252235Z 16012KT 30/20 A2994 RMK A01 T03010198  RH  054%=      5-min Rain = 0
KMD1 252236Z 16014G22KT 30/20 A2994 RMK A01 T03010196  RH  054%=      5-min Rain = 0
KMD1 252237Z 16013KT 30/20 A2994 RMK A01 T03010197  RH  054%=      5-min Rain = 0
KMD1 252238Z 15014KT 30/20 A2994 RMK A01 T03010195  RH  053%=      5-min Rain = 0
KMD1 252239Z 16015KT 30/20 A2994 RMK A01 T03010198  RH  054%=      5-min Rain = 0
KMD1 252240Z 15014G19KT 30/20 A2994 RMK A01 T03000199  RH  055%=      5-min Rain = 0
KMD1 252241Z 14014G19KT 30/20 A2994 RMK A01 T02990197  RH  054%=      5-min Rain = 0
KMD1 252242Z 14013G18KT 30/20 A2994 RMK A01 T02980197  RH  055%=      5-min Rain = 0
KMD1 252243Z 15014KT 30/20 A2995 RMK A01 T02970195  RH  054%=      5-min Rain = 0
KMD1 252244Z 15015KT 30/20 A2994 RMK A01 T02960197  RH  055%=      5-min Rain = 0
KMD1 252245Z 16016G22KT 30/19 A2994 RMK A01 T02960193  RH  054%=      5-min Rain = 0
KMD1 252246Z 16019KT 30/19 A2994 RMK A01 T02960190  RH  053%=      5-min Rain = 0
KMD1 252247Z 15014G21KT 30/19 A2994 RMK A01 T02970193  RH  053%=      5-min Rain = 0
KMD1 252248Z 15016KT 30/19 A2994 RMK A01 T02980193  RH  053%=      5-min Rain = 0
KMD1 252249Z 15015KT 30/19 A2995 RMK A01 T02980194  RH  054%=      5-min Rain = 0
KMD1 252250Z 16013KT 30/19 A2995 RMK A01 T02980194  RH  054%=      5-min Rain = 0
KMD1 252251Z 16013G19KT 30/19 A2995 RMK A01 T02980194  RH  054%=      5-min Rain = 0
KMD1 252252Z 16016KT 30/19 A2995 RMK A01 T02990194  RH  053%=      5-min Rain = 0
KMD1 252253Z 15016KT 30/19 A2995 RMK A01 T02990194  RH  053%=      5-min Rain = 0
KMD1 252254Z 15014KT 30/19 A2994 RMK A01 T02990193  RH  053%=      5-min Rain = 0
KMD1 252255Z 15013KT 30/19 A2994 RMK A01 T02990194  RH  053%=      5-min Rain = 0
KMD1 252256Z 16013KT 30/19 A2994 RMK A01 T02990194  RH  053%=      5-min Rain = 0
KMD1 252257Z 15011KT 30/20 A2994 RMK A01 T03000196  RH  054%=      5-min Rain = 0
KMD1 252258Z 14017KT 30/20 A2994 RMK A01 T02990199  RH  055%=      5-min Rain = 0
KMD1 252259Z 15016KT 30/19 A2994 RMK A01 T02980191  RH  053%=      5-min Rain = 0
KMD1 252300Z 16012KT 30/19 A2994 RMK A01 T02970194  RH  054%=      5-min Rain = 0
KMD1 252301Z 16015KT 30/19 A2994 RMK A01 T02960192  RH  053%=      5-min Rain = 0
KMD1 252302Z 15012KT 30/20 A2995 RMK A01 T02960196  RH  055%=      5-min Rain = 0
KMD1 252303Z 16014KT 29/19 A2995 RMK A01 T02940194  RH  055%=      5-min Rain = 0
KMD1 252304Z 16016KT 29/19 A2995 RMK A01 T02930193  RH  055%=      5-min Rain = 0
KMD1 252305Z 15015KT 29/19 A2995 RMK A01 T02910194  RH  056%=      5-min Rain = 0
KMD1 252306Z 15014KT 29/19 A2995 RMK A01 T02910194  RH  056%=      5-min Rain = 0
KMD1 252307Z 14018KT 29/19 A2995 RMK A01 T02920194  RH  056%=      5-min Rain = 0
KMD1 252308Z 13016G22KT 29/19 A2995 RMK A01 T02910194  RH  056%=      5-min Rain = 0
KMD1 252309Z 14012KT 29/20 A2995 RMK A01 T02880196  RH  057%=      5-min Rain = 0
KMD1 252310Z 14014KT 29/20 A2995 RMK A01 T02870195  RH  057%=      5-min Rain = 0
KMD1 252311Z 14014KT 29/20 A2995 RMK A01 T02870195  RH  058%=      5-min Rain = 0
KMD1 252312Z 14015KT 29/19 A2995 RMK A01 T02870193  RH  057%=      5-min Rain = 0
KMD1 252313Z 14012KT 29/20 A2995 RMK A01 T02880195  RH  057%=      5-min Rain = 0
KMD1 252314Z 14011KT 29/20 A2995 RMK A01 T02890199  RH  058%=      5-min Rain = 0
KMD1 252315Z 14013KT 29/20 A2995 RMK A01 T02880196  RH  058%=      5-min Rain = 0
KMD1 252316Z 15012KT 29/19 A2994 RMK A01 T02890194  RH  056%=      5-min Rain = 0
KMD1 252317Z 15012KT 29/19 A2995 RMK A01 T02900194  RH  056%=      5-min Rain = 0
KMD1 252318Z 17015G20KT 29/19 A2994 RMK A01 T02920191  RH  055%=      5-min Rain = 0
KMD1 252319Z 16010KT 29/20 A2994 RMK A01 T02930195  RH  056%=      5-min Rain = 0
KMD1 252320Z 17011G16KT 29/20 A2994 RMK A01 T02930195  RH  055%=      5-min Rain = 0
KMD1 252321Z 16014KT 29/19 A2994 RMK A01 T02930189  RH  054%=      5-min Rain = 0
KMD1 252322Z 16011G16KT 29/19 A2994 RMK A01 T02940192  RH  054%=      5-min Rain = 0
KMD1 252323Z 17014KT 29/19 A2994 RMK A01 T02930191  RH  054%=      5-min Rain = 0
KMD1 252324Z 15012KT 29/19 A2994 RMK A01 T02920194  RH  056%=      5-min Rain = 0
KMD1 252325Z 16012KT 29/19 A2994 RMK A01 T02910193  RH  056%=      5-min Rain = 0
KMD1 252326Z 16012KT 29/20 A2994 RMK A01 T02910195  RH  056%=      5-min Rain = 0
KMD1 252327Z 15014KT 29/19 A2995 RMK A01 T02900193  RH  056%=      5-min Rain = 0
KMD1 252328Z 14016KT 29/19 A2994 RMK A01 T02900192  RH  055%=      5-min Rain = 0
KMD1 252329Z 14017KT 29/19 A2995 RMK A01 T02890194  RH  057%=      5-min Rain = 0
KMD1 252330Z 14016KT 29/19 A2995 RMK A01 T02870193  RH  057%=      5-min Rain = 0
KMD1 252331Z 13014KT 29/20 A2994 RMK A01 T02860197  RH  059%=      5-min Rain = 0
KMD1 252332Z 14019KT 28/19 A2995 RMK A01 T02840193  RH  058%=      5-min Rain = 0
KMD1 252333Z 13017KT 28/19 A2995 RMK A01 T02840194  RH  058%=      5-min Rain = 0
KMD1 252334Z 14015KT 28/20 A2994 RMK A01 T02830195  RH  059%=      5-min Rain = 0
KMD1 252335Z 15014KT 28/19 A2995 RMK A01 T02820194  RH  059%=      5-min Rain = 0
KMD1 252336Z 14013KT 28/19 A2995 RMK A01 T02820194  RH  059%=      5-min Rain = 0
KMD1 252337Z 14011KT 28/20 A2995 RMK A01 T02820195  RH  059%=      5-min Rain = 0
KMD1 252338Z 14010KT 28/20 A2995 RMK A01 T02820195  RH  059%=      5-min Rain = 0
KMD1 252339Z 14010KT 28/20 A2995 RMK A01 T02810195  RH  059%=      5-min Rain = 0
KMD1 252340Z 14010KT 28/20 A2995 RMK A01 T02810198  RH  061%=      5-min Rain = 0
KMD1 252341Z 15009KT 28/20 A2995 RMK A01 T02800197  RH  061%=      5-min Rain = 0
KMD1 252342Z 13010KT 28/20 A2995 RMK A01 T02790196  RH  061%=      5-min Rain = 0
KMD1 252343Z 15008KT 28/20 A2995 RMK A01 T02790196  RH  061%=      5-min Rain = 0
KMD1 252344Z 16007KT 28/19 A2995 RMK A01 T02790194  RH  060%=      5-min Rain = 0
KMD1 252345Z 16008KT 28/20 A2996 RMK A01 T02800196  RH  060%=      5-min Rain = 0
KMD1 252346Z 15007KT 28/20 A2996 RMK A01 T02810198  RH  061%=      5-min Rain = 0
KMD1 252347Z 15007KT 28/20 A2996 RMK A01 T02810197  RH  061%=      5-min Rain = 0
KMD1 252348Z 15008KT 28/20 A2995 RMK A01 T02810197  RH  060%=      5-min Rain = 0
KMD1 252349Z 15010KT 28/20 A2995 RMK A01 T02810195  RH  060%=      5-min Rain = 0
KMD1 252350Z 14012KT 28/19 A2996 RMK A01 T02800194  RH  059%=      5-min Rain = 0
KMD1 252351Z 15013KT 28/19 A2996 RMK A01 T02810193  RH  059%=      5-min Rain = 0
KMD1 252352Z 15010KT 28/19 A2996 RMK A01 T02820191  RH  058%=      5-min Rain = 0
KMD1 252353Z 16011KT 28/19 A2996 RMK A01 T02840194  RH  058%=      5-min Rain = 0
KMD1 252354Z 15012KT 28/20 A2996 RMK A01 T02840195  RH  059%=      5-min Rain = 0
KMD1 252355Z 16012KT 28/19 A2996 RMK A01 T02830194  RH  058%=      5-min Rain = 0
KMD1 252356Z 15010KT 28/20 A2996 RMK A01 T02830195  RH  059%=      5-min Rain = 0
KMD1 252357Z 15012KT 28/19 A2996 RMK A01 T02830194  RH  058%=      5-min Rain = 0
KMD1 252358Z 15009KT 28/19 A2996 RMK A01 T02830194  RH  059%=      5-min Rain = 0
KMD1 252359Z 15009KT 28/20 A2996 RMK A01 T02830195  RH  059%=      5-min Rain = 0
KMD1 260000Z 15010KT 28/20 A2996 RMK A01 T02830196  RH  059%=      5-min Rain = 0
KMD1 260001Z 14012KT 28/20 A2996 RMK A01 T02830195  RH  059%=      5-min Rain = 0
KMD1 260002Z 16012KT 28/19 A2996 RMK A01 T02820194  RH  059%=      5-min Rain = 0
KMD1 260003Z 15011KT 28/19 A2996 RMK A01 T02810194  RH  059%=      5-min Rain = 0
KMD1 260004Z 15010KT 28/19 A2996 RMK A01 T02820194  RH  059%=      5-min Rain = 0
KMD1 260005Z 15010KT 28/19 A2996 RMK A01 T02810194  RH  059%=      5-min Rain = 0
KMD1 260006Z 15010KT 28/19 A2996 RMK A01 T02810194  RH  059%=      5-min Rain = 0
KMD1 260007Z 15009KT 28/19 A2995 RMK A01 T02810193  RH  059%=      5-min Rain = 0
KMD1 260008Z 15011KT 28/19 A2995 RMK A01 T02810193  RH  059%=      5-min Rain = 0
KMD1 260009Z 14011KT 28/19 A2995 RMK A01 T02810193  RH  059%=      5-min Rain = 0
KMD1 260010Z 14013G18KT 28/19 A2995 RMK A01 T02810194  RH  059%=      5-min Rain = 0
KMD1 260011Z 15010G15KT 28/19 A2995 RMK A01 T02800193  RH  059%=      5-min Rain = 0
KMD1 260012Z 14014G20KT 28/19 A2995 RMK A01 T02790191  RH  059%=      5-min Rain = 0
KMD1 260013Z 15009KT 28/19 A2995 RMK A01 T02790192  RH  059%=      5-min Rain = 0
KMD1 260014Z 15010KT 28/19 A2996 RMK A01 T02800193  RH  059%=      5-min Rain = 0
KMD1 260015Z 14009KT 28/19 A2996 RMK A01 T02800191  RH  059%=      5-min Rain = 0
KMD1 260016Z 14010KT 28/19 A2996 RMK A01 T02800194  RH  059%=      5-min Rain = 0
KMD1 260017Z 14009KT 28/19 A2996 RMK A01 T02800194  RH  060%=      5-min Rain = 0
KMD1 260018Z 14011KT 28/19 A2996 RMK A01 T02790193  RH  060%=      5-min Rain = 0
KMD1 260019Z 14011KT 28/19 A2995 RMK A01 T02780192  RH  059%=      5-min Rain = 0
KMD1 260020Z 14009KT 28/19 A2995 RMK A01 T02780193  RH  060%=      5-min Rain = 0
KMD1 260021Z 14011KT 28/19 A2995 RMK A01 T02770194  RH  061%=      5-min Rain = 0
KMD1 260022Z 14010KT 28/19 A2995 RMK A01 T02760192  RH  060%=      5-min Rain = 0
KMD1 260023Z 14009KT 28/19 A2995 RMK A01 T02760193  RH  061%=      5-min Rain = 0
KMD1 260024Z 14008KT 28/20 A2995 RMK A01 T02750195  RH  062%=      5-min Rain = 0
KMD1 260025Z 14009KT 28/19 A2995 RMK A01 T02750194  RH  061%=      5-min Rain = 0
KMD1 260026Z 14009KT 27/19 A2995 RMK A01 T02740194  RH  062%=      5-min Rain = 0
KMD1 260027Z 15010KT 27/19 A2995 RMK A01 T02730193  RH  061%=      5-min Rain = 0
KMD1 260028Z 15011KT 27/19 A2995 RMK A01 T02740191  RH  061%=      5-min Rain = 0
KMD1 260029Z 16011KT 28/19 A2995 RMK A01 T02750191  RH  060%=      5-min Rain = 0
KMD1 260030Z 15010KT 28/19 A2995 RMK A01 T02750191  RH  060%=      5-min Rain = 0
KMD1 260031Z 14009KT 28/19 A2995 RMK A01 T02760190  RH  060%=      5-min Rain = 0
KMD1 260032Z 15008KT 28/19 A2995 RMK A01 T02760192  RH  060%=      5-min Rain = 0
KMD1 260033Z 15006KT 28/19 A2995 RMK A01 T02760193  RH  061%=      5-min Rain = 0
KMD1 260034Z 15009KT 28/19 A2995 RMK A01 T02750192  RH  061%=      5-min Rain = 0
KMD1 260035Z 15007KT 28/19 A2995 RMK A01 T02750192  RH  061%=      5-min Rain = 0
KMD1 260036Z 15009KT 27/19 A2995 RMK A01 T02740191  RH  060%=      5-min Rain = 0
KMD1 260037Z 15008KT 27/19 A2995 RMK A01 T02740192  RH  061%=      5-min Rain = 0
KMD1 260038Z 14008KT 27/19 A2995 RMK A01 T02740193  RH  061%=      5-min Rain = 0
KMD1 260039Z 15010KT 27/19 A2995 RMK A01 T02730192  RH  061%=      5-min Rain = 0
KMD1 260040Z 14009KT 27/19 A2995 RMK A01 T02730191  RH  061%=      5-min Rain = 0
KMD1 260041Z 14012KT 27/19 A2995 RMK A01 T02730190  RH  060%=      5-min Rain = 0
KMD1 260042Z 15011KT 27/19 A2995 RMK A01 T02740190  RH  060%=      5-min Rain = 0
KMD1 260043Z 14008KT 28/19 A2995 RMK A01 T02750192  RH  061%=      5-min Rain = 0
KMD1 260044Z 14009KT 27/19 A2995 RMK A01 T02740192  RH  061%=      5-min Rain = 0
KMD1 260045Z 15009KT 27/19 A2995 RMK A01 T02730192  RH  061%=      5-min Rain = 0
KMD1 260046Z 15009KT 27/19 A2995 RMK A01 T02720191  RH  061%=      5-min Rain = 0
KMD1 260047Z 15008KT 27/19 A2995 RMK A01 T02720189  RH  060%=      5-min Rain = 0
KMD1 260048Z 15009KT 27/19 A2995 RMK A01 T02730190  RH  061%=      5-min Rain = 0
KMD1 260049Z 14008KT 27/19 A2995 RMK A01 T02730191  RH  061%=      5-min Rain = 0
KMD1 260050Z 15009KT 27/19 A2996 RMK A01 T02730191  RH  061%=      5-min Rain = 0
KMD1 260051Z 14008KT 27/19 A2996 RMK A01 T02730191  RH  061%=      5-min Rain = 0
KMD1 260052Z 15008KT 27/19 A2996 RMK A01 T02720192  RH  061%=      5-min Rain = 0
KMD1 260053Z 15009KT 27/19 A2996 RMK A01 T02720192  RH  062%=      5-min Rain = 0
KMD1 260054Z 15007KT 27/19 A2996 RMK A01 T02710191  RH  062%=      5-min Rain = 0
KMD1 260055Z 14009KT 27/19 A2996 RMK A01 T02710192  RH  062%=      5-min Rain = 0
KMD1 260056Z 14010KT 27/19 A2996 RMK A01 T02710192  RH  062%=      5-min Rain = 0
KMD1 260057Z 15009KT 27/19 A2996 RMK A01 T02710191  RH  062%=      5-min Rain = 0
KMD1 260058Z 15009KT 27/19 A2996 RMK A01 T02710191  RH  061%=      5-min Rain = 0
KMD1 260059Z 15011KT 27/19 A2996 RMK A01 T02710191  RH  061%=      5-min Rain = 0
KMD1 260100Z 15011KT 27/19 A2996 RMK A01 T02710189  RH  061%=      5-min Rain = 0
KMD1 260101Z 16010KT 27/19 A2996 RMK A01 T02710190  RH  061%=      5-min Rain = 0
KMD1 260102Z 15012KT 27/19 A2996 RMK A01 T02710189  RH  061%=      5-min Rain = 0
KMD1 260103Z 15010KT 27/19 A2996 RMK A01 T02710190  RH  061%=      5-min Rain = 0
KMD1 260104Z 15009KT 27/19 A2996 RMK A01 T02710190  RH  061%=      5-min Rain = 0
KMD1 260105Z 16010G15KT 27/19 A2996 RMK A01 T02710190  RH  061%=      5-min Rain = 0
KMD1 260106Z 15012KT 27/19 A2996 RMK A01 T02700188  RH  061%=      5-min Rain = 0
KMD1 260107Z 15012KT 27/19 A2996 RMK A01 T02710187  RH  060%=      5-min Rain = 0
KMD1 260108Z 16010KT 27/19 A2996 RMK A01 T02720188  RH  060%=      5-min Rain = 0
KMD1 260109Z 15009KT 27/19 A2996 RMK A01 T02720189  RH  060%=      5-min Rain = 0
KMD1 260110Z 15007KT 27/19 A2996 RMK A01 T02710190  RH  061%=      5-min Rain = 0
KMD1 260111Z 16008KT 27/19 A2996 RMK A01 T02690189  RH  062%=      5-min Rain = 0
KMD1 260112Z 16009KT 27/19 A2996 RMK A01 T02690188  RH  061%=      5-min Rain = 0
KMD1 260113Z 16009KT 27/19 A2997 RMK A01 T02690188  RH  061%=      5-min Rain = 0
KMD1 260114Z 15011KT 27/19 A2997 RMK A01 T02690187  RH  061%=      5-min Rain = 0
KMD1 260115Z 15009KT 27/19 A2997 RMK A01 T02700187  RH  060%=      5-min Rain = 0
KMD1 260116Z 15010KT 27/19 A2997 RMK A01 T02700187  RH  061%=      5-min Rain = 0
KMD1 260117Z 15008KT 27/19 A2997 RMK A01 T02700188  RH  061%=      5-min Rain = 0
KMD1 260118Z 15009KT 27/19 A2996 RMK A01 T02700188  RH  061%=      5-min Rain = 0
KMD1 260119Z 15009KT 27/19 A2996 RMK A01 T02700188  RH  061%=      5-min Rain = 0
KMD1 260120Z 15009KT 27/19 A2996 RMK A01 T02690187  RH  061%=      5-min Rain = 0
KMD1 260121Z 15009KT 27/19 A2996 RMK A01 T02690186  RH  060%=      5-min Rain = 0
KMD1 260122Z 16009KT 27/19 A2996 RMK A01 T02700187  RH  060%=      5-min Rain = 0
KMD1 260123Z 15009KT 27/19 A2996 RMK A01 T02690187  RH  061%=      5-min Rain = 0
KMD1 260124Z 16007KT 27/19 A2997 RMK A01 T02690188  RH  061%=      5-min Rain = 0
KMD1 260125Z 16009KT 27/19 A2997 RMK A01 T02680188  RH  062%=      5-min Rain = 0
KMD1 260126Z 17010KT 27/19 A2997 RMK A01 T02670187  RH  062%=      5-min Rain = 0
KMD1 260127Z 17009KT 27/19 A2997 RMK A01 T02670187  RH  061%=      5-min Rain = 0
KMD1 260128Z 16007KT 27/19 A2997 RMK A01 T02680188  RH  062%=      5-min Rain = 0
KMD1 260129Z 16008KT 27/19 A2997 RMK A01 T02670188  RH  062%=      5-min Rain = 0
KMD1 260130Z 16009KT 27/19 A2997 RMK A01 T02660188  RH  062%=      5-min Rain = 0
KMD1 260131Z 16008KT 27/19 A2997 RMK A01 T02660187  RH  062%=      5-min Rain = 0
KMD1 260132Z 16008KT 27/19 A2997 RMK A01 T02660188  RH  062%=      5-min Rain = 0
KMD1 260133Z 16007KT 27/19 A2997 RMK A01 T02660188  RH  062%=      5-min Rain = 0
KMD1 260134Z 16007KT 27/19 A2997 RMK A01 T02650188  RH  063%=      5-min Rain = 0
KMD1 260135Z 15007KT 26/19 A2997 RMK A01 T02640189  RH  063%=      5-min Rain = 0
KMD1 260136Z 15008KT 26/19 A2997 RMK A01 T02630188  RH  064%=      5-min Rain = 0
KMD1 260137Z 16007KT 26/19 A2997 RMK A01 T02630188  RH  063%=      5-min Rain = 0
KMD1 260138Z 15007KT 26/19 A2997 RMK A01 T02630188  RH  063%=      5-min Rain = 0
KMD1 260139Z 15007KT 26/19 A2997 RMK A01 T02630188  RH  063%=      5-min Rain = 0
KMD1 260140Z 15008KT 26/19 A2996 RMK A01 T02630188  RH  064%=      5-min Rain = 0
KMD1 260141Z 15008KT 26/19 A2996 RMK A01 T02620188  RH  064%=      5-min Rain = 0
KMD1 260142Z 15008KT 26/19 A2996 RMK A01 T02620187  RH  063%=      5-min Rain = 0
KMD1 260143Z 15006KT 26/19 A2996 RMK A01 T02620188  RH  064%=      5-min Rain = 0
KMD1 260144Z 14007KT 26/19 A2996 RMK A01 T02620189  RH  064%=      5-min Rain = 0
KMD1 260145Z 14007KT 26/19 A2996 RMK A01 T02610188  RH  064%=      5-min Rain = 0
KMD1 260146Z 15006KT 26/19 A2996 RMK A01 T02600188  RH  064%=      5-min Rain = 0
KMD1 260147Z 14007KT 26/19 A2996 RMK A01 T02600188  RH  065%=      5-min Rain = 0
KMD1 260148Z 15007KT 26/19 A2996 RMK A01 T02600188  RH  064%=      5-min Rain = 0
KMD1 260149Z 14007KT 26/19 A2996 RMK A01 T02600188  RH  064%=      5-min Rain = 0
KMD1 260150Z 15007KT 26/19 A2996 RMK A01 T02610188  RH  064%=      5-min Rain = 0
KMD1 260151Z 16007KT 26/19 A2996 RMK A01 T02610188  RH  064%=      5-min Rain = 0
KMD1 260152Z 16008G14KT 26/19 A2996 RMK A01 T02610188  RH  064%=      5-min Rain = 0
KMD1 260153Z 15010KT 26/19 A2996 RMK A01 T02620188  RH  064%=      5-min Rain = 0
KMD1 260154Z 15007KT 26/19 A2996 RMK A01 T02630189  RH  064%=      5-min Rain = 0
KMD1 260155Z 15007KT 26/19 A2996 RMK A01 T02620189  RH  064%=      5-min Rain = 0
KMD1 260156Z 15007KT 26/19 A2996 RMK A01 T02610190  RH  065%=      5-min Rain = 0
KMD1 260157Z 15009KT 26/19 A2997 RMK A01 T02610189  RH  065%=      5-min Rain = 0
KMD1 260158Z 15009KT 26/19 A2997 RMK A01 T02610189  RH  065%=      5-min Rain = 0
KMD1 260159Z 15010KT 26/19 A2997 RMK A01 T02610189  RH  064%=      5-min Rain = 0
KMD1 260200Z 16009KT 26/19 A2997 RMK A01 T02620189  RH  064%=      5-min Rain = 0
KMD1 260201Z 15009KT 26/19 A2997 RMK A01 T02620189  RH  064%=      5-min Rain = 0
KMD1 260202Z 16009KT 26/19 A2997 RMK A01 T02620190  RH  064%=      5-min Rain = 0
KMD1 260203Z 15008KT 26/19 A2997 RMK A01 T02620190  RH  065%=      5-min Rain = 0
KMD1 260204Z 15007KT 26/19 A2997 RMK A01 T02610191  RH  065%=      5-min Rain = 0
KMD1 260205Z 16010KT 26/19 A2997 RMK A01 T02590190  RH  066%=      5-min Rain = 0
KMD1 260206Z 15009KT 26/19 A2996 RMK A01 T02600189  RH  065%=      5-min Rain = 0
KMD1 260207Z 15009KT 26/19 A2996 RMK A01 T02620190  RH  065%=      5-min Rain = 0
KMD1 260208Z 15010KT 26/19 A2996 RMK A01 T02620191  RH  065%=      5-min Rain = 0
KMD1 260209Z 15011KT 26/19 A2996 RMK A01 T02610190  RH  065%=      5-min Rain = 0
KMD1 260210Z 15008KT 26/19 A2996 RMK A01 T02610190  RH  065%=      5-min Rain = 0
KMD1 260211Z 15009KT 26/19 A2996 RMK A01 T02610191  RH  065%=      5-min Rain = 0
KMD1 260212Z 15009KT 26/19 A2997 RMK A01 T02600190  RH  065%=      5-min Rain = 0
KMD1 260213Z 16008KT 26/19 A2997 RMK A01 T02600191  RH  065%=      5-min Rain = 0
KMD1 260214Z 15011KT 26/19 A2997 RMK A01 T02600191  RH  066%=      5-min Rain = 0
KMD1 260215Z 15008KT 26/19 A2997 RMK A01 T02600190  RH  065%=      5-min Rain = 0
KMD1 260216Z 15007KT 26/19 A2997 RMK A01 T02610191  RH  065%=      5-min Rain = 0
KMD1 260217Z 15006KT 26/19 A2998 RMK A01 T02600192  RH  066%=      5-min Rain = 0
KMD1 260218Z 16005KT 26/19 A2998 RMK A01 T02590191  RH  066%=      5-min Rain = 0
KMD1 260219Z 16008KT 26/19 A2998 RMK A01 T02590191  RH  066%=      5-min Rain = 0
KMD1 260220Z 15008KT 26/19 A2998 RMK A01 T02590191  RH  066%=      5-min Rain = 0
KMD1 260221Z 14009KT 26/19 A2998 RMK A01 T02590191  RH  066%=      5-min Rain = 0
KMD1 260222Z 14009KT 26/19 A2998 RMK A01 T02590191  RH  066%=      5-min Rain = 0
KMD1 260223Z 14009KT 26/19 A2998 RMK A01 T02590191  RH  066%=      5-min Rain = 0
KMD1 260224Z 13008KT 26/19 A2998 RMK A01 T02590191  RH  066%=      5-min Rain = 0
KMD1 260225Z 13006KT 26/19 A2999 RMK A01 T02600192  RH  066%=      5-min Rain = 0
KMD1 260226Z 14006KT 26/19 A2999 RMK A01 T02580193  RH  067%=      5-min Rain = 0
KMD1 260227Z 13006KT 26/19 A2999 RMK A01 T02550193  RH  068%=      5-min Rain = 0
KMD1 260228Z 12006KT 25/19 A2999 RMK A01 T02530193  RH  069%=      5-min Rain = 0
KMD1 260229Z 12006KT 25/19 A2999 RMK A01 T02520193  RH  070%=      5-min Rain = 0
KMD1 260230Z 13006KT 25/19 A2999 RMK A01 T02510193  RH  070%=      5-min Rain = 0
KMD1 260231Z 12005KT 25/19 A2998 RMK A01 T02510193  RH  070%=      5-min Rain = 0
KMD1 260232Z 11006KT 25/19 A2998 RMK A01 T02500193  RH  070%=      5-min Rain = 0
KMD1 260233Z 12008KT 25/19 A2998 RMK A01 T02490193  RH  071%=      5-min Rain = 0
KMD1 260234Z 12006KT 25/19 A2998 RMK A01 T02490192  RH  071%=      5-min Rain = 0
KMD1 260235Z 12006KT 25/19 A2998 RMK A01 T02490194  RH  072%=      5-min Rain = 0
KMD1 260236Z 12007KT 25/19 A2998 RMK A01 T02460194  RH  072%=      5-min Rain = 0
KMD1 260237Z 13008G13KT 25/19 A2998 RMK A01 T02450193  RH  073%=      5-min Rain = 0
KMD1 260238Z 14009KT 25/19 A2998 RMK A01 T02450193  RH  073%=      5-min Rain = 0
KMD1 260239Z 13010KT 25/19 A2999 RMK A01 T02460192  RH  072%=      5-min Rain = 0
KMD1 260240Z 15010KT 25/19 A2999 RMK A01 T02490191  RH  070%=      5-min Rain = 0
KMD1 260241Z 14010KT 25/19 A2999 RMK A01 T02540191  RH  068%=      5-min Rain = 0
KMD1 260242Z 15010KT 26/19 A2999 RMK A01 T02560192  RH  068%=      5-min Rain = 0
KMD1 260243Z 16011KT 26/19 A2999 RMK A01 T02560192  RH  067%=      5-min Rain = 0
KMD1 260244Z 15008KT 26/19 A2999 RMK A01 T02570193  RH  068%=      5-min Rain = 0
KMD1 260245Z 15010KT 26/19 A2999 RMK A01 T02560193  RH  068%=      5-min Rain = 0
KMD1 260246Z 15011KT 26/19 A2999 RMK A01 T02560192  RH  068%=      5-min Rain = 0
KMD1 260247Z 15011KT 26/19 A2999 RMK A01 T02560192  RH  068%=      5-min Rain = 0
KMD1 260248Z 15010KT 26/19 A2999 RMK A01 T02570193  RH  068%=      5-min Rain = 0
KMD1 260249Z 16013KT 26/19 A2999 RMK A01 T02560193  RH  068%=      5-min Rain = 0
KMD1 260250Z 15012KT 26/19 A2999 RMK A01 T02570192  RH  067%=      5-min Rain = 0
KMD1 260251Z 15010KT 26/19 A2999 RMK A01 T02580193  RH  067%=      5-min Rain = 0
KMD1 260252Z 16013KT 26/19 A2999 RMK A01 T02580193  RH  067%=      5-min Rain = 0
KMD1 260253Z 15011KT 26/19 A2999 RMK A01 T02580193  RH  067%=      5-min Rain = 0
KMD1 260254Z 15010KT 26/19 A2999 RMK A01 T02580193  RH  067%=      5-min Rain = 0
KMD1 260255Z 15013KT 26/19 A2999 RMK A01 T02580193  RH  067%=      5-min Rain = 0
KMD1 260256Z 15012KT 26/19 A2999 RMK A01 T02580193  RH  067%=      5-min Rain = 0
KMD1 260257Z 14013KT 26/19 A30 RMK A01 T02580193  RH  067%=      5-min Rain = 0
KMD1 260258Z 14011KT 26/19 A30 RMK A01 T02590194  RH  067%=      5-min Rain = 0
KMD1 260259Z 15011KT 26/19 A30 RMK A01 T02580194  RH  068%=      5-min Rain = 0
KMD1 260300Z 15012KT 26/19 A30 RMK A01 T02580193  RH  068%=      5-min Rain = 0
KMD1 260301Z 15011KT 26/19 A30 RMK A01 T02580193  RH  067%=      5-min Rain = 0
KMD1 260302Z 15010KT 26/19 A30 RMK A01 T02580193  RH  067%=      5-min Rain = 0
KMD1 260303Z 14009KT 26/19 A30 RMK A01 T02580193  RH  067%=      5-min Rain = 0
KMD1 260304Z 14009KT 26/19 A30 RMK A01 T02580193  RH  068%=      5-min Rain = 0
KMD1 260305Z 14007KT 26/19 A30 RMK A01 T02570194  RH  068%=      5-min Rain = 0
KMD1 260306Z 13008KT 26/19 A30 RMK A01 T02560194  RH  069%=      5-min Rain = 0
KMD1 260307Z 14007KT 26/20 A30 RMK A01 T02550195  RH  069%=      5-min Rain = 0
KMD1 260308Z 15008KT 25/20 A30 RMK A01 T02530195  RH  070%=      5-min Rain = 0
KMD1 260309Z 15006KT 25/19 A30 RMK A01 T02520194  RH  070%=      5-min Rain = 0
KMD1 260310Z 14009KT 25/19 A2999 RMK A01 T02510194  RH  070%=      5-min Rain = 0
KMD1 260311Z 14009KT 25/19 A2999 RMK A01 T02510193  RH  070%=      5-min Rain = 0
KMD1 260312Z 15009KT 25/19 A2999 RMK A01 T02520193  RH  070%=      5-min Rain = 0
KMD1 260313Z 15009KT 25/19 A2999 RMK A01 T02520193  RH  070%=      5-min Rain = 0
KMD1 260314Z 15008KT 25/19 A2999 RMK A01 T02510193  RH  070%=      5-min Rain = 0
KMD1 260315Z 15009KT 25/19 A2999 RMK A01 T02510194  RH  070%=      5-min Rain = 0
KMD1 260316Z 15009KT 25/19 A2999 RMK A01 T02510193  RH  070%=      5-min Rain = 0
KMD1 260317Z 14008KT 25/19 A2999 RMK A01 T02510194  RH  070%=      5-min Rain = 0
KMD1 260318Z 14008KT 25/19 A2999 RMK A01 T02510194  RH  071%=      5-min Rain = 0
KMD1 260319Z 14011G16KT 25/19 A2999 RMK A01 T02500193  RH  071%=      5-min Rain = 0
KMD1 260320Z 16009KT 25/19 A2999 RMK A01 T02500192  RH  070%=      5-min Rain = 0
KMD1 260321Z 15010G16KT 25/19 A2999 RMK A01 T02510192  RH  070%=      5-min Rain = 0
KMD1 260322Z 15012KT 25/19 A2999 RMK A01 T02520192  RH  069%=      5-min Rain = 0
KMD1 260323Z 15011KT 25/19 A2999 RMK A01 T02530192  RH  069%=      5-min Rain = 0
KMD1 260324Z 15010KT 25/19 A2999 RMK A01 T02540192  RH  069%=      5-min Rain = 0
KMD1 260325Z 16010KT 25/19 A2999 RMK A01 T02540192  RH  068%=      5-min Rain = 0
KMD1 260326Z 16012KT 25/19 A2999 RMK A01 T02540191  RH  068%=      5-min Rain = 0
KMD1 260327Z 16012KT 25/19 A30 RMK A01 T02540192  RH  068%=      5-min Rain = 0
KMD1 260328Z 15010KT 25/19 A30 RMK A01 T02530192  RH  069%=      5-min Rain = 0
KMD1 260329Z 14011KT 25/19 A30 RMK A01 T02530192  RH  069%=      5-min Rain = 0
KMD1 260330Z 15010KT 25/19 A30 RMK A01 T02520192  RH  069%=      5-min Rain = 0
KMD1 260331Z 15008KT 25/19 A30 RMK A01 T02520192  RH  069%=      5-min Rain = 0
KMD1 260332Z 14011KT 25/19 A30 RMK A01 T02510192  RH  070%=      5-min Rain = 0
KMD1 260333Z 15014KT 25/19 A30 RMK A01 T02510191  RH  069%=      5-min Rain = 0
KMD1 260334Z 15010KT 25/19 A30 RMK A01 T02520191  RH  069%=      5-min Rain = 0
KMD1 260335Z 14011KT 25/19 A30 RMK A01 T02530192  RH  069%=      5-min Rain = 0
KMD1 260336Z 14010KT 25/19 A30 RMK A01 T02520192  RH  069%=      5-min Rain = 0
KMD1 260337Z 15008KT 25/19 A30 RMK A01 T02510192  RH  070%=      5-min Rain = 0
KMD1 260338Z 14009KT 25/19 A3001 RMK A01 T02500192  RH  070%=      5-min Rain = 0
KMD1 260339Z 14010KT 25/19 A3001 RMK A01 T02500191  RH  070%=      5-min Rain = 0
KMD1 260340Z 15012KT 25/19 A3001 RMK A01 T02500191  RH  070%=      5-min Rain = 0
KMD1 260341Z 14013KT 25/19 A3001 RMK A01 T02500190  RH  069%=      5-min Rain = 0
KMD1 260342Z 15010KT 25/19 A3001 RMK A01 T02510191  RH  069%=      5-min Rain = 0
KMD1 260343Z 14011KT 25/19 A3001 RMK A01 T02510192  RH  070%=      5-min Rain = 0
KMD1 260344Z 15015KT 25/19 A3001 RMK A01 T02500191  RH  069%=      5-min Rain = 0
KMD1 260345Z 15013KT 25/19 A3001 RMK A01 T02520191  RH  069%=      5-min Rain = 0
KMD1 260346Z 15009KT 25/19 A3001 RMK A01 T02520192  RH  069%=      5-min Rain = 0
KMD1 260347Z 15010KT 25/19 A3001 RMK A01 T02510192  RH  070%=      5-min Rain = 0
KMD1 260348Z 14010KT 25/19 A3001 RMK A01 T02500192  RH  070%=      5-min Rain = 0
KMD1 260349Z 15009KT 25/19 A3001 RMK A01 T02500192  RH  070%=      5-min Rain = 0
KMD1 260350Z 14011KT 25/19 A3001 RMK A01 T02490192  RH  071%=      5-min Rain = 0
KMD1 260351Z 16010KT 25/19 A3001 RMK A01 T02490191  RH  070%=      5-min Rain = 0
KMD1 260352Z 14013KT 25/19 A3001 RMK A01 T02490191  RH  070%=      5-min Rain = 0
KMD1 260353Z 13010KT 25/19 A3001 RMK A01 T02490192  RH  070%=      5-min Rain = 0
KMD1 260354Z 14011KT 25/19 A3001 RMK A01 T02490192  RH  071%=      5-min Rain = 0
KMD1 260355Z 14009KT 25/19 A3001 RMK A01 T02490192  RH  071%=      5-min Rain = 0
KMD1 260356Z 14009KT 25/19 A3001 RMK A01 T02480192  RH  071%=      5-min Rain = 0
KMD1 260357Z 14009KT 25/19 A3001 RMK A01 T02480193  RH  071%=      5-min Rain = 0
KMD1 260358Z 15009KT 25/19 A3001 RMK A01 T02470193  RH  072%=      5-min Rain = 0
KMD1 260359Z 14011KT 25/19 A3001 RMK A01 T02470192  RH  072%=      5-min Rain = 0
KMD1 260400Z 14014KT 25/19 A3001 RMK A01 T02470192  RH  071%=      5-min Rain = 0
KMD1 260401Z 14011KT 25/19 A3001 RMK A01 T02480192  RH  071%=      5-min Rain = 0
KMD1 260402Z 14013KT 25/19 A3001 RMK A01 T02480193  RH  071%=      5-min Rain = 0
KMD1 260403Z 15012KT 25/19 A3001 RMK A01 T02480193  RH  071%=      5-min Rain = 0
KMD1 260404Z 15014KT 25/19 A3001 RMK A01 T02480193  RH  071%=      5-min Rain = 0
KMD1 260405Z 15012KT 25/19 A3001 RMK A01 T02480192  RH  071%=      5-min Rain = 0
KMD1 260406Z 15011KT 25/19 A3001 RMK A01 T02480192  RH  071%=      5-min Rain = 0
KMD1 260407Z 15010KT 25/19 A3001 RMK A01 T02480193  RH  071%=      5-min Rain = 0
KMD1 260408Z 16009KT 25/19 A3001 RMK A01 T02480193  RH  071%=      5-min Rain = 0
KMD1 260409Z 15010KT 25/19 A3001 RMK A01 T02470193  RH  072%=      5-min Rain = 0
KMD1 260410Z 15009KT 25/19 A3001 RMK A01 T02470193  RH  072%=      5-min Rain = 0
KMD1 260411Z 15011KT 25/19 A3001 RMK A01 T02470193  RH  072%=      5-min Rain = 0
KMD1 260412Z 15010KT 25/19 A3001 RMK A01 T02470193  RH  072%=      5-min Rain = 0
KMD1 260413Z 15008KT 25/19 A3001 RMK A01 T02460193  RH  072%=      5-min Rain = 0
KMD1 260414Z 15010KT 25/19 A3001 RMK A01 T02460193  RH  072%=      5-min Rain = 0
KMD1 260415Z 14009KT 25/19 A3001 RMK A01 T02460193  RH  073%=      5-min Rain = 0
KMD1 260416Z 14009KT 25/19 A3001 RMK A01 T02450194  RH  073%=      5-min Rain = 0
KMD1 260417Z 14007KT 24/19 A3001 RMK A01 T02440193  RH  073%=      5-min Rain = 0
KMD1 260418Z 15008KT 24/19 A3001 RMK A01 T02440193  RH  073%=      5-min Rain = 0
KMD1 260419Z 14008KT 24/19 A3001 RMK A01 T02430193  RH  074%=      5-min Rain = 0
KMD1 260420Z 14008KT 24/19 A3001 RMK A01 T02430194  RH  074%=      5-min Rain = 0
KMD1 260421Z 14010KT 24/19 A3001 RMK A01 T02420194  RH  074%=      5-min Rain = 0
KMD1 260422Z 14009KT 24/19 A3001 RMK A01 T02420194  RH  074%=      5-min Rain = 0
KMD1 260423Z 15011KT 24/19 A3001 RMK A01 T02430194  RH  074%=      5-min Rain = 0
KMD1 260424Z 14009KT 24/19 A3001 RMK A01 T02430194  RH  074%=      5-min Rain = 0
KMD1 260425Z 14012KT 24/19 A3001 RMK A01 T02430194  RH  074%=      5-min Rain = 0
KMD1 260426Z 14009KT 24/20 A3001 RMK A01 T02440195  RH  074%=      5-min Rain = 0
KMD1 260427Z 15010KT 24/19 A3001 RMK A01 T02430194  RH  074%=      5-min Rain = 0
KMD1 260428Z 14009KT 24/19 A3001 RMK A01 T02430194  RH  074%=      5-min Rain = 0
KMD1 260429Z 15010KT 24/19 A3001 RMK A01 T02430194  RH  074%=      5-min Rain = 0
KMD1 260430Z 14008KT 24/20 A3001 RMK A01 T02430195  RH  074%=      5-min Rain = 0
KMD1 260431Z 14012KT 24/20 A3001 RMK A01 T02430195  RH  075%=      5-min Rain = 0
KMD1 260432Z 14012KT 24/20 A3001 RMK A01 T02420195  RH  075%=      5-min Rain = 0
KMD1 260433Z 14012KT 24/20 A3001 RMK A01 T02430195  RH  075%=      5-min Rain = 0
KMD1 260434Z 14011KT 24/20 A3001 RMK A01 T02430195  RH  075%=      5-min Rain = 0
KMD1 260435Z 15011KT 24/20 A3001 RMK A01 T02430195  RH  075%=      5-min Rain = 0
KMD1 260436Z 13009KT 24/20 A3001 RMK A01 T02420195  RH  075%=      5-min Rain = 0
KMD1 260437Z 14007KT 24/20 A3001 RMK A01 T02420196  RH  075%=      5-min Rain = 0
KMD1 260438Z 14008KT 24/20 A3001 RMK A01 T02410196  RH  076%=      5-min Rain = 0
KMD1 260439Z 14010KT 24/20 A3001 RMK A01 T02400196  RH  076%=      5-min Rain = 0
KMD1 260440Z 15010KT 24/20 A3001 RMK A01 T02400195  RH  076%=      5-min Rain = 0
KMD1 260441Z 15009KT 24/20 A3001 RMK A01 T02400195  RH  076%=      5-min Rain = 0
KMD1 260442Z 15009KT 24/20 A3001 RMK A01 T02400196  RH  076%=      5-min Rain = 0
KMD1 260443Z 14008KT 24/20 A3001 RMK A01 T02400196  RH  076%=      5-min Rain = 0
KMD1 260444Z 15010KT 24/20 A3001 RMK A01 T02400197  RH  077%=      5-min Rain = 0
KMD1 260445Z 15009KT 24/20 A3001 RMK A01 T02390196  RH  077%=      5-min Rain = 0
KMD1 260446Z 15008KT 24/20 A3001 RMK A01 T02390197  RH  077%=      5-min Rain = 0
KMD1 260447Z 16010KT 24/20 A3001 RMK A01 T02390197  RH  077%=      5-min Rain = 0
KMD1 260448Z 15009KT 24/20 A3001 RMK A01 T02390197  RH  077%=      5-min Rain = 0
KMD1 260449Z 15008KT 24/20 A3001 RMK A01 T02390196  RH  077%=      5-min Rain = 0
KMD1 260450Z 15009KT 24/20 A3001 RMK A01 T02390197  RH  077%=      5-min Rain = 0
KMD1 260451Z 16009KT 24/20 A3001 RMK A01 T02390197  RH  077%=      5-min Rain = 0
KMD1 260452Z 14010KT 24/20 A3002 RMK A01 T02380197  RH  077%=      5-min Rain = 0
KMD1 260453Z 15007KT 24/20 A3002 RMK A01 T02390197  RH  077%=      5-min Rain = 0
KMD1 260454Z 15008KT 24/20 A3002 RMK A01 T02390197  RH  077%=      5-min Rain = 0
KMD1 260455Z 15008KT 24/20 A3002 RMK A01 T02390197  RH  078%=      5-min Rain = 0
KMD1 260456Z 15007KT 24/20 A3002 RMK A01 T02380197  RH  078%=      5-min Rain = 0
KMD1 260457Z 15007KT 24/20 A3002 RMK A01 T02380198  RH  078%=      5-min Rain = 0
KMD1 260458Z 14006KT 24/20 A3002 RMK A01 T02370197  RH  078%=      5-min Rain = 0
KMD1 260459Z 14008KT 24/20 A3002 RMK A01 T02360198  RH  079%=      5-min Rain = 0

Page generated in 0.072 seconds.